<?xml version="1.0" encoding="UTF-8" standalone="no" ?>
<gpx xmlns="http://www.topografix.com/GPX/1/1" xmlns:xsi="http://www.w3.org/2001/XMLSchema-instance" xsi:schemaLocation="http://www.topografix.com/GPX/1/1 http://www.topografix.com/GPX/1/1/gpx.xsd" version="1.1" creator="VisuGPX - https://www.visugpx.com">
  <metadata>
    <name>nevy les dole</name>
    <desc><![CDATA[Rando sans difficulté ]]></desc>
  </metadata>
  <trk>
    <name><![CDATA[nevy les dole2]]></name>
    <trkseg>
      <trkpt lat="47.00227" lon="5.5199">
        <ele>183.268433</ele>
        <time>2011-12-08T13:46:56Z</time>
      </trkpt>
      <trkpt lat="47.00227" lon="5.5199">
        <ele>183.268433</ele>
        <time>2011-12-08T13:46:57Z</time>
      </trkpt>
      <trkpt lat="47.00226" lon="5.51991">
        <ele>186.633179</ele>
        <time>2011-12-08T13:47:04Z</time>
      </trkpt>
      <trkpt lat="47.00226" lon="5.51991">
        <ele>188.555786</ele>
        <time>2011-12-08T13:47:08Z</time>
      </trkpt>
      <trkpt lat="47.00226" lon="5.51991">
        <ele>191.920288</ele>
        <time>2011-12-08T13:47:14Z</time>
      </trkpt>
      <trkpt lat="47.00227" lon="5.5199">
        <ele>194.804321</ele>
        <time>2011-12-08T13:47:22Z</time>
      </trkpt>
      <trkpt lat="47.00231" lon="5.51985">
        <ele>198.168945</ele>
        <time>2011-12-08T13:47:32Z</time>
      </trkpt>
      <trkpt lat="47.00235" lon="5.51973">
        <ele>201.052856</ele>
        <time>2011-12-08T13:47:47Z</time>
      </trkpt>
      <trkpt lat="47.00238" lon="5.51964">
        <ele>202.014282</ele>
        <time>2011-12-08T13:47:54Z</time>
      </trkpt>
      <trkpt lat="47.00247" lon="5.51937">
        <ele>203.456177</ele>
        <time>2011-12-08T13:48:13Z</time>
      </trkpt>
      <trkpt lat="47.00254" lon="5.51915">
        <ele>203.456177</ele>
        <time>2011-12-08T13:48:29Z</time>
      </trkpt>
      <trkpt lat="47.00265" lon="5.51883">
        <ele>203.93689</ele>
        <time>2011-12-08T13:48:51Z</time>
      </trkpt>
      <trkpt lat="47.00276" lon="5.51847">
        <ele>201.533569</ele>
        <time>2011-12-08T13:49:14Z</time>
      </trkpt>
      <trkpt lat="47.00279" lon="5.51839">
        <ele>202.494873</ele>
        <time>2011-12-08T13:49:19Z</time>
      </trkpt>
      <trkpt lat="47.00285" lon="5.51835">
        <ele>198.649536</ele>
        <time>2011-12-08T13:49:26Z</time>
      </trkpt>
      <trkpt lat="47.00286" lon="5.51835">
        <ele>202.494873</ele>
        <time>2011-12-08T13:49:27Z</time>
      </trkpt>
      <trkpt lat="47.00288" lon="5.51835">
        <ele>198.168945</ele>
        <time>2011-12-08T13:49:30Z</time>
      </trkpt>
      <trkpt lat="47.00289" lon="5.51835">
        <ele>202.014282</ele>
        <time>2011-12-08T13:49:31Z</time>
      </trkpt>
      <trkpt lat="47.00293" lon="5.51835">
        <ele>202.014282</ele>
        <time>2011-12-08T13:49:45Z</time>
      </trkpt>
      <trkpt lat="47.00305" lon="5.51833">
        <ele>200.572266</ele>
        <time>2011-12-08T13:50:07Z</time>
      </trkpt>
      <trkpt lat="47.00306" lon="5.51832">
        <ele>202.014282</ele>
        <time>2011-12-08T13:50:08Z</time>
      </trkpt>
      <trkpt lat="47.00316" lon="5.51826">
        <ele>201.052856</ele>
        <time>2011-12-08T13:50:21Z</time>
      </trkpt>
      <trkpt lat="47.00318" lon="5.51824">
        <ele>200.572266</ele>
        <time>2011-12-08T13:50:24Z</time>
      </trkpt>
      <trkpt lat="47.00329" lon="5.51822">
        <ele>201.052856</ele>
        <time>2011-12-08T13:50:33Z</time>
      </trkpt>
      <trkpt lat="47.00348" lon="5.51815">
        <ele>201.533569</ele>
        <time>2011-12-08T13:50:47Z</time>
      </trkpt>
      <trkpt lat="47.0037" lon="5.51807">
        <ele>201.052856</ele>
        <time>2011-12-08T13:51:05Z</time>
      </trkpt>
      <trkpt lat="47.00394" lon="5.51798">
        <ele>200.572266</ele>
        <time>2011-12-08T13:51:24Z</time>
      </trkpt>
      <trkpt lat="47.00422" lon="5.51798">
        <ele>200.572266</ele>
        <time>2011-12-08T13:51:46Z</time>
      </trkpt>
      <trkpt lat="47.00454" lon="5.51806">
        <ele>200.572266</ele>
        <time>2011-12-08T13:52:11Z</time>
      </trkpt>
      <trkpt lat="47.00457" lon="5.51807">
        <ele>200.091675</ele>
        <time>2011-12-08T13:52:31Z</time>
      </trkpt>
      <trkpt lat="47.00456" lon="5.51807">
        <ele>200.091675</ele>
        <time>2011-12-08T13:52:47Z</time>
      </trkpt>
      <trkpt lat="47.00462" lon="5.51806">
        <ele>200.572266</ele>
        <time>2011-12-08T13:53:09Z</time>
      </trkpt>
      <trkpt lat="47.00459" lon="5.51808">
        <ele>200.091675</ele>
        <time>2011-12-08T13:53:39Z</time>
      </trkpt>
      <trkpt lat="47.00467" lon="5.51794">
        <ele>200.572266</ele>
        <time>2011-12-08T13:54:04Z</time>
      </trkpt>
      <trkpt lat="47.00468" lon="5.51794">
        <ele>200.572266</ele>
        <time>2011-12-08T13:54:05Z</time>
      </trkpt>
      <trkpt lat="47.00471" lon="5.51791">
        <ele>200.091675</ele>
        <time>2011-12-08T13:54:09Z</time>
      </trkpt>
      <trkpt lat="47.00487" lon="5.51793">
        <ele>200.091675</ele>
        <time>2011-12-08T13:54:24Z</time>
      </trkpt>
      <trkpt lat="47.00488" lon="5.51793">
        <ele>200.091675</ele>
        <time>2011-12-08T13:54:25Z</time>
      </trkpt>
      <trkpt lat="47.0049" lon="5.51792">
        <ele>199.61084</ele>
        <time>2011-12-08T13:54:27Z</time>
      </trkpt>
      <trkpt lat="47.00502" lon="5.5178">
        <ele>199.61084</ele>
        <time>2011-12-08T13:54:39Z</time>
      </trkpt>
      <trkpt lat="47.00509" lon="5.51769">
        <ele>200.091675</ele>
        <time>2011-12-08T13:54:48Z</time>
      </trkpt>
      <trkpt lat="47.00515" lon="5.51762">
        <ele>200.091675</ele>
        <time>2011-12-08T13:54:54Z</time>
      </trkpt>
      <trkpt lat="47.00527" lon="5.51748">
        <ele>199.61084</ele>
        <time>2011-12-08T13:55:06Z</time>
      </trkpt>
      <trkpt lat="47.0055" lon="5.51715">
        <ele>199.61084</ele>
        <time>2011-12-08T13:55:30Z</time>
      </trkpt>
      <trkpt lat="47.00576" lon="5.51677">
        <ele>199.61084</ele>
        <time>2011-12-08T13:55:58Z</time>
      </trkpt>
      <trkpt lat="47.00601" lon="5.51665">
        <ele>199.61084</ele>
        <time>2011-12-08T13:56:18Z</time>
      </trkpt>
      <trkpt lat="47.00624" lon="5.51656">
        <ele>199.130127</ele>
        <time>2011-12-08T13:56:35Z</time>
      </trkpt>
      <trkpt lat="47.00639" lon="5.5165">
        <ele>199.130127</ele>
        <time>2011-12-08T13:56:47Z</time>
      </trkpt>
      <trkpt lat="47.00648" lon="5.5165">
        <ele>198.649536</ele>
        <time>2011-12-08T13:56:54Z</time>
      </trkpt>
      <trkpt lat="47.0066" lon="5.51644">
        <ele>198.649536</ele>
        <time>2011-12-08T13:57:03Z</time>
      </trkpt>
      <trkpt lat="47.00674" lon="5.51636">
        <ele>198.168945</ele>
        <time>2011-12-08T13:57:14Z</time>
      </trkpt>
      <trkpt lat="47.007" lon="5.51616">
        <ele>198.168945</ele>
        <time>2011-12-08T13:57:36Z</time>
      </trkpt>
      <trkpt lat="47.00723" lon="5.51595">
        <ele>198.649536</ele>
        <time>2011-12-08T13:57:57Z</time>
      </trkpt>
      <trkpt lat="47.00733" lon="5.51584">
        <ele>198.168945</ele>
        <time>2011-12-08T13:58:07Z</time>
      </trkpt>
      <trkpt lat="47.00755" lon="5.5158">
        <ele>197.688232</ele>
        <time>2011-12-08T13:58:26Z</time>
      </trkpt>
      <trkpt lat="47.00759" lon="5.51581">
        <ele>197.688232</ele>
        <time>2011-12-08T13:58:29Z</time>
      </trkpt>
      <trkpt lat="47.00783" lon="5.51591">
        <ele>197.20752</ele>
        <time>2011-12-08T13:58:50Z</time>
      </trkpt>
      <trkpt lat="47.00785" lon="5.51591">
        <ele>197.20752</ele>
        <time>2011-12-08T13:58:52Z</time>
      </trkpt>
      <trkpt lat="47.00808" lon="5.51604">
        <ele>197.20752</ele>
        <time>2011-12-08T13:59:11Z</time>
      </trkpt>
      <trkpt lat="47.00821" lon="5.51614">
        <ele>197.20752</ele>
        <time>2011-12-08T13:59:24Z</time>
      </trkpt>
      <trkpt lat="47.00846" lon="5.51628">
        <ele>197.20752</ele>
        <time>2011-12-08T13:59:45Z</time>
      </trkpt>
      <trkpt lat="47.00873" lon="5.51643">
        <ele>197.20752</ele>
        <time>2011-12-08T14:00:08Z</time>
      </trkpt>
      <trkpt lat="47.00885" lon="5.51652">
        <ele>196.726929</ele>
        <time>2011-12-08T14:00:19Z</time>
      </trkpt>
      <trkpt lat="47.00888" lon="5.51655">
        <ele>197.20752</ele>
        <time>2011-12-08T14:00:22Z</time>
      </trkpt>
      <trkpt lat="47.00899" lon="5.51661">
        <ele>197.20752</ele>
        <time>2011-12-08T14:00:30Z</time>
      </trkpt>
      <trkpt lat="47.00914" lon="5.51673">
        <ele>196.726929</ele>
        <time>2011-12-08T14:00:44Z</time>
      </trkpt>
      <trkpt lat="47.00919" lon="5.51678">
        <ele>197.20752</ele>
        <time>2011-12-08T14:00:59Z</time>
      </trkpt>
      <trkpt lat="47.00924" lon="5.51684">
        <ele>197.688232</ele>
        <time>2011-12-08T14:01:23Z</time>
      </trkpt>
      <trkpt lat="47.00932" lon="5.51694">
        <ele>197.20752</ele>
        <time>2011-12-08T14:01:38Z</time>
      </trkpt>
      <trkpt lat="47.00936" lon="5.5171">
        <ele>196.726929</ele>
        <time>2011-12-08T14:01:47Z</time>
      </trkpt>
      <trkpt lat="47.00937" lon="5.51735">
        <ele>196.726929</ele>
        <time>2011-12-08T14:02:03Z</time>
      </trkpt>
      <trkpt lat="47.00935" lon="5.51767">
        <ele>197.20752</ele>
        <time>2011-12-08T14:02:23Z</time>
      </trkpt>
      <trkpt lat="47.00929" lon="5.51804">
        <ele>196.726929</ele>
        <time>2011-12-08T14:02:43Z</time>
      </trkpt>
      <trkpt lat="47.00923" lon="5.51842">
        <ele>196.726929</ele>
        <time>2011-12-08T14:03:06Z</time>
      </trkpt>
      <trkpt lat="47.00917" lon="5.51881">
        <ele>196.246338</ele>
        <time>2011-12-08T14:03:28Z</time>
      </trkpt>
      <trkpt lat="47.00911" lon="5.51926">
        <ele>196.726929</ele>
        <time>2011-12-08T14:03:54Z</time>
      </trkpt>
      <trkpt lat="47.00905" lon="5.51965">
        <ele>196.246338</ele>
        <time>2011-12-08T14:04:15Z</time>
      </trkpt>
      <trkpt lat="47.00897" lon="5.52005">
        <ele>196.726929</ele>
        <time>2011-12-08T14:04:38Z</time>
      </trkpt>
      <trkpt lat="47.0089" lon="5.52037">
        <ele>196.726929</ele>
        <time>2011-12-08T14:04:58Z</time>
      </trkpt>
      <trkpt lat="47.0088" lon="5.5207">
        <ele>196.246338</ele>
        <time>2011-12-08T14:05:17Z</time>
      </trkpt>
      <trkpt lat="47.00872" lon="5.52102">
        <ele>196.726929</ele>
        <time>2011-12-08T14:05:36Z</time>
      </trkpt>
      <trkpt lat="47.00859" lon="5.52145">
        <ele>195.765625</ele>
        <time>2011-12-08T14:06:01Z</time>
      </trkpt>
      <trkpt lat="47.00839" lon="5.52162">
        <ele>196.246338</ele>
        <time>2011-12-08T14:06:22Z</time>
      </trkpt>
      <trkpt lat="47.00835" lon="5.52158">
        <ele>196.726929</ele>
        <time>2011-12-08T14:06:26Z</time>
      </trkpt>
      <trkpt lat="47.00831" lon="5.52157">
        <ele>196.726929</ele>
        <time>2011-12-08T14:06:30Z</time>
      </trkpt>
      <trkpt lat="47.008" lon="5.52168">
        <ele>195.765625</ele>
        <time>2011-12-08T14:06:55Z</time>
      </trkpt>
      <trkpt lat="47.00775" lon="5.52178">
        <ele>196.246338</ele>
        <time>2011-12-08T14:07:19Z</time>
      </trkpt>
      <trkpt lat="47.00744" lon="5.52195">
        <ele>195.765625</ele>
        <time>2011-12-08T14:07:45Z</time>
      </trkpt>
      <trkpt lat="47.00717" lon="5.52228">
        <ele>195.765625</ele>
        <time>2011-12-08T14:08:12Z</time>
      </trkpt>
      <trkpt lat="47.00703" lon="5.52249">
        <ele>195.765625</ele>
        <time>2011-12-08T14:08:29Z</time>
      </trkpt>
      <trkpt lat="47.007" lon="5.52253">
        <ele>196.246338</ele>
        <time>2011-12-08T14:08:33Z</time>
      </trkpt>
      <trkpt lat="47.00679" lon="5.52283">
        <ele>195.765625</ele>
        <time>2011-12-08T14:08:57Z</time>
      </trkpt>
      <trkpt lat="47.00662" lon="5.52311">
        <ele>196.246338</ele>
        <time>2011-12-08T14:09:19Z</time>
      </trkpt>
      <trkpt lat="47.00648" lon="5.5234">
        <ele>196.726929</ele>
        <time>2011-12-08T14:09:40Z</time>
      </trkpt>
      <trkpt lat="47.00643" lon="5.5235">
        <ele>196.726929</ele>
        <time>2011-12-08T14:09:46Z</time>
      </trkpt>
      <trkpt lat="47.00632" lon="5.52366">
        <ele>196.246338</ele>
        <time>2011-12-08T14:10:00Z</time>
      </trkpt>
      <trkpt lat="47.00621" lon="5.52391">
        <ele>198.168945</ele>
        <time>2011-12-08T14:10:20Z</time>
      </trkpt>
      <trkpt lat="47.00618" lon="5.52399">
        <ele>198.168945</ele>
        <time>2011-12-08T14:10:37Z</time>
      </trkpt>
      <trkpt lat="47.00606" lon="5.52408">
        <ele>198.168945</ele>
        <time>2011-12-08T14:12:06Z</time>
      </trkpt>
      <trkpt lat="47.00584" lon="5.52409">
        <ele>198.649536</ele>
        <time>2011-12-08T14:12:24Z</time>
      </trkpt>
      <trkpt lat="47.00583" lon="5.52409">
        <ele>198.649536</ele>
        <time>2011-12-08T14:12:25Z</time>
      </trkpt>
      <trkpt lat="47.00559" lon="5.52406">
        <ele>199.130127</ele>
        <time>2011-12-08T14:12:45Z</time>
      </trkpt>
      <trkpt lat="47.00557" lon="5.52406">
        <ele>199.130127</ele>
        <time>2011-12-08T14:12:47Z</time>
      </trkpt>
      <trkpt lat="47.00554" lon="5.52405">
        <ele>198.649536</ele>
        <time>2011-12-08T14:12:50Z</time>
      </trkpt>
      <trkpt lat="47.00552" lon="5.52405">
        <ele>199.130127</ele>
        <time>2011-12-08T14:12:52Z</time>
      </trkpt>
      <trkpt lat="47.00527" lon="5.52403">
        <ele>199.130127</ele>
        <time>2011-12-08T14:13:12Z</time>
      </trkpt>
      <trkpt lat="47.00505" lon="5.52403">
        <ele>199.61084</ele>
        <time>2011-12-08T14:13:30Z</time>
      </trkpt>
      <trkpt lat="47.00487" lon="5.52403">
        <ele>199.61084</ele>
        <time>2011-12-08T14:13:45Z</time>
      </trkpt>
      <trkpt lat="47.00487" lon="5.52415">
        <ele>200.091675</ele>
        <time>2011-12-08T14:13:53Z</time>
      </trkpt>
      <trkpt lat="47.00516" lon="5.52448">
        <ele>200.572266</ele>
        <time>2011-12-08T14:14:21Z</time>
      </trkpt>
      <trkpt lat="47.00536" lon="5.52475">
        <ele>200.572266</ele>
        <time>2011-12-08T14:14:42Z</time>
      </trkpt>
      <trkpt lat="47.00552" lon="5.52491">
        <ele>200.572266</ele>
        <time>2011-12-08T14:14:57Z</time>
      </trkpt>
      <trkpt lat="47.00572" lon="5.52503">
        <ele>200.572266</ele>
        <time>2011-12-08T14:15:15Z</time>
      </trkpt>
      <trkpt lat="47.00583" lon="5.52511">
        <ele>200.572266</ele>
        <time>2011-12-08T14:15:24Z</time>
      </trkpt>
      <trkpt lat="47.00587" lon="5.52553">
        <ele>200.572266</ele>
        <time>2011-12-08T14:15:47Z</time>
      </trkpt>
      <trkpt lat="47.0059" lon="5.52593">
        <ele>201.052856</ele>
        <time>2011-12-08T14:16:08Z</time>
      </trkpt>
      <trkpt lat="47.00596" lon="5.52632">
        <ele>201.052856</ele>
        <time>2011-12-08T14:16:30Z</time>
      </trkpt>
      <trkpt lat="47.00606" lon="5.5267">
        <ele>201.052856</ele>
        <time>2011-12-08T14:16:52Z</time>
      </trkpt>
      <trkpt lat="47.00611" lon="5.52681">
        <ele>201.052856</ele>
        <time>2011-12-08T14:16:59Z</time>
      </trkpt>
      <trkpt lat="47.00623" lon="5.52703">
        <ele>201.533569</ele>
        <time>2011-12-08T14:17:14Z</time>
      </trkpt>
      <trkpt lat="47.00625" lon="5.52704">
        <ele>201.533569</ele>
        <time>2011-12-08T14:17:16Z</time>
      </trkpt>
      <trkpt lat="47.00647" lon="5.52729">
        <ele>201.533569</ele>
        <time>2011-12-08T14:17:36Z</time>
      </trkpt>
      <trkpt lat="47.00663" lon="5.52747">
        <ele>201.533569</ele>
        <time>2011-12-08T14:17:53Z</time>
      </trkpt>
      <trkpt lat="47.00666" lon="5.52776">
        <ele>201.052856</ele>
        <time>2011-12-08T14:18:10Z</time>
      </trkpt>
      <trkpt lat="47.00655" lon="5.52815">
        <ele>201.533569</ele>
        <time>2011-12-08T14:18:32Z</time>
      </trkpt>
      <trkpt lat="47.00648" lon="5.52846">
        <ele>201.052856</ele>
        <time>2011-12-08T14:18:49Z</time>
      </trkpt>
      <trkpt lat="47.00635" lon="5.52897">
        <ele>201.052856</ele>
        <time>2011-12-08T14:19:18Z</time>
      </trkpt>
      <trkpt lat="47.00625" lon="5.52937">
        <ele>201.052856</ele>
        <time>2011-12-08T14:19:40Z</time>
      </trkpt>
      <trkpt lat="47.00615" lon="5.52976">
        <ele>201.052856</ele>
        <time>2011-12-08T14:20:02Z</time>
      </trkpt>
      <trkpt lat="47.00607" lon="5.5301">
        <ele>201.533569</ele>
        <time>2011-12-08T14:20:19Z</time>
      </trkpt>
      <trkpt lat="47.00597" lon="5.53038">
        <ele>201.052856</ele>
        <time>2011-12-08T14:20:37Z</time>
      </trkpt>
      <trkpt lat="47.00582" lon="5.53067">
        <ele>201.052856</ele>
        <time>2011-12-08T14:20:56Z</time>
      </trkpt>
      <trkpt lat="47.00581" lon="5.53068">
        <ele>201.533569</ele>
        <time>2011-12-08T14:20:58Z</time>
      </trkpt>
      <trkpt lat="47.00579" lon="5.53071">
        <ele>201.052856</ele>
        <time>2011-12-08T14:21:00Z</time>
      </trkpt>
      <trkpt lat="47.00568" lon="5.5311">
        <ele>201.533569</ele>
        <time>2011-12-08T14:21:19Z</time>
      </trkpt>
      <trkpt lat="47.00559" lon="5.53155">
        <ele>200.572266</ele>
        <time>2011-12-08T14:21:43Z</time>
      </trkpt>
      <trkpt lat="47.00552" lon="5.53194">
        <ele>201.052856</ele>
        <time>2011-12-08T14:22:04Z</time>
      </trkpt>
      <trkpt lat="47.00546" lon="5.53236">
        <ele>201.533569</ele>
        <time>2011-12-08T14:22:27Z</time>
      </trkpt>
      <trkpt lat="47.00541" lon="5.53268">
        <ele>201.052856</ele>
        <time>2011-12-08T14:22:44Z</time>
      </trkpt>
      <trkpt lat="47.00535" lon="5.5331">
        <ele>201.533569</ele>
        <time>2011-12-08T14:23:07Z</time>
      </trkpt>
      <trkpt lat="47.00525" lon="5.53356">
        <ele>201.533569</ele>
        <time>2011-12-08T14:23:32Z</time>
      </trkpt>
      <trkpt lat="47.00521" lon="5.53392">
        <ele>202.014282</ele>
        <time>2011-12-08T14:23:52Z</time>
      </trkpt>
      <trkpt lat="47.00516" lon="5.53429">
        <ele>202.014282</ele>
        <time>2011-12-08T14:24:12Z</time>
      </trkpt>
      <trkpt lat="47.00513" lon="5.53465">
        <ele>202.014282</ele>
        <time>2011-12-08T14:24:30Z</time>
      </trkpt>
      <trkpt lat="47.00512" lon="5.5347">
        <ele>201.533569</ele>
        <time>2011-12-08T14:24:33Z</time>
      </trkpt>
      <trkpt lat="47.0051" lon="5.53504">
        <ele>201.533569</ele>
        <time>2011-12-08T14:24:51Z</time>
      </trkpt>
      <trkpt lat="47.00506" lon="5.53543">
        <ele>201.052856</ele>
        <time>2011-12-08T14:25:12Z</time>
      </trkpt>
      <trkpt lat="47.00501" lon="5.53583">
        <ele>201.533569</ele>
        <time>2011-12-08T14:25:33Z</time>
      </trkpt>
      <trkpt lat="47.00494" lon="5.53637">
        <ele>202.494873</ele>
        <time>2011-12-08T14:26:02Z</time>
      </trkpt>
      <trkpt lat="47.00489" lon="5.53693">
        <ele>202.494873</ele>
        <time>2011-12-08T14:26:31Z</time>
      </trkpt>
      <trkpt lat="47.00485" lon="5.53738">
        <ele>202.014282</ele>
        <time>2011-12-08T14:26:55Z</time>
      </trkpt>
      <trkpt lat="47.0048" lon="5.53784">
        <ele>202.014282</ele>
        <time>2011-12-08T14:27:20Z</time>
      </trkpt>
      <trkpt lat="47.00478" lon="5.53828">
        <ele>202.014282</ele>
        <time>2011-12-08T14:27:42Z</time>
      </trkpt>
      <trkpt lat="47.00479" lon="5.53839">
        <ele>202.014282</ele>
        <time>2011-12-08T14:28:05Z</time>
      </trkpt>
      <trkpt lat="47.00479" lon="5.53838">
        <ele>202.014282</ele>
        <time>2011-12-08T14:28:38Z</time>
      </trkpt>
      <trkpt lat="47.00478" lon="5.53838">
        <ele>201.533569</ele>
        <time>2011-12-08T14:29:51Z</time>
      </trkpt>
      <trkpt lat="47.0048" lon="5.53854">
        <ele>201.533569</ele>
        <time>2011-12-08T14:30:55Z</time>
      </trkpt>
      <trkpt lat="47.00492" lon="5.53864">
        <ele>201.052856</ele>
        <time>2011-12-08T14:31:08Z</time>
      </trkpt>
      <trkpt lat="47.00504" lon="5.53885">
        <ele>201.533569</ele>
        <time>2011-12-08T14:31:24Z</time>
      </trkpt>
      <trkpt lat="47.00509" lon="5.53905">
        <ele>201.533569</ele>
        <time>2011-12-08T14:31:36Z</time>
      </trkpt>
      <trkpt lat="47.00511" lon="5.53908">
        <ele>201.052856</ele>
        <time>2011-12-08T14:31:39Z</time>
      </trkpt>
      <trkpt lat="47.00515" lon="5.53925">
        <ele>201.052856</ele>
        <time>2011-12-08T14:31:50Z</time>
      </trkpt>
      <trkpt lat="47.00519" lon="5.53933">
        <ele>201.052856</ele>
        <time>2011-12-08T14:31:56Z</time>
      </trkpt>
      <trkpt lat="47.00521" lon="5.53935">
        <ele>201.052856</ele>
        <time>2011-12-08T14:31:58Z</time>
      </trkpt>
      <trkpt lat="47.00529" lon="5.53963">
        <ele>201.052856</ele>
        <time>2011-12-08T14:32:15Z</time>
      </trkpt>
      <trkpt lat="47.00534" lon="5.53973">
        <ele>201.052856</ele>
        <time>2011-12-08T14:32:23Z</time>
      </trkpt>
      <trkpt lat="47.0054" lon="5.5398">
        <ele>201.052856</ele>
        <time>2011-12-08T14:32:28Z</time>
      </trkpt>
      <trkpt lat="47.00551" lon="5.5399">
        <ele>200.572266</ele>
        <time>2011-12-08T14:32:38Z</time>
      </trkpt>
      <trkpt lat="47.00557" lon="5.53997">
        <ele>201.052856</ele>
        <time>2011-12-08T14:32:45Z</time>
      </trkpt>
      <trkpt lat="47.00567" lon="5.54005">
        <ele>201.052856</ele>
        <time>2011-12-08T14:32:54Z</time>
      </trkpt>
      <trkpt lat="47.00588" lon="5.54019">
        <ele>201.052856</ele>
        <time>2011-12-08T14:33:09Z</time>
      </trkpt>
      <trkpt lat="47.00594" lon="5.54023">
        <ele>201.533569</ele>
        <time>2011-12-08T14:33:15Z</time>
      </trkpt>
      <trkpt lat="47.00608" lon="5.54035">
        <ele>201.052856</ele>
        <time>2011-12-08T14:33:29Z</time>
      </trkpt>
      <trkpt lat="47.00619" lon="5.5404">
        <ele>201.052856</ele>
        <time>2011-12-08T14:33:37Z</time>
      </trkpt>
      <trkpt lat="47.00639" lon="5.54053">
        <ele>201.533569</ele>
        <time>2011-12-08T14:33:54Z</time>
      </trkpt>
      <trkpt lat="47.00656" lon="5.54062">
        <ele>201.533569</ele>
        <time>2011-12-08T14:34:07Z</time>
      </trkpt>
      <trkpt lat="47.00678" lon="5.54078">
        <ele>201.052856</ele>
        <time>2011-12-08T14:34:26Z</time>
      </trkpt>
      <trkpt lat="47.00694" lon="5.54092">
        <ele>200.572266</ele>
        <time>2011-12-08T14:34:42Z</time>
      </trkpt>
      <trkpt lat="47.00696" lon="5.541">
        <ele>200.572266</ele>
        <time>2011-12-08T14:34:47Z</time>
      </trkpt>
      <trkpt lat="47.00692" lon="5.5413">
        <ele>200.572266</ele>
        <time>2011-12-08T14:35:04Z</time>
      </trkpt>
      <trkpt lat="47.00684" lon="5.54161">
        <ele>200.572266</ele>
        <time>2011-12-08T14:35:22Z</time>
      </trkpt>
      <trkpt lat="47.00678" lon="5.54195">
        <ele>200.572266</ele>
        <time>2011-12-08T14:35:44Z</time>
      </trkpt>
      <trkpt lat="47.00675" lon="5.54228">
        <ele>200.572266</ele>
        <time>2011-12-08T14:36:02Z</time>
      </trkpt>
      <trkpt lat="47.00674" lon="5.54235">
        <ele>200.572266</ele>
        <time>2011-12-08T14:36:06Z</time>
      </trkpt>
      <trkpt lat="47.00693" lon="5.54254">
        <ele>201.052856</ele>
        <time>2011-12-08T14:36:26Z</time>
      </trkpt>
      <trkpt lat="47.00707" lon="5.5426">
        <ele>201.052856</ele>
        <time>2011-12-08T14:36:39Z</time>
      </trkpt>
      <trkpt lat="47.0071" lon="5.54261">
        <ele>201.052856</ele>
        <time>2011-12-08T14:36:42Z</time>
      </trkpt>
      <trkpt lat="47.00718" lon="5.54266">
        <ele>201.052856</ele>
        <time>2011-12-08T14:36:50Z</time>
      </trkpt>
      <trkpt lat="47.0072" lon="5.54268">
        <ele>201.052856</ele>
        <time>2011-12-08T14:36:52Z</time>
      </trkpt>
      <trkpt lat="47.0072" lon="5.54292">
        <ele>200.572266</ele>
        <time>2011-12-08T14:37:06Z</time>
      </trkpt>
      <trkpt lat="47.00719" lon="5.5431">
        <ele>201.052856</ele>
        <time>2011-12-08T14:37:16Z</time>
      </trkpt>
      <trkpt lat="47.00715" lon="5.54341">
        <ele>201.052856</ele>
        <time>2011-12-08T14:37:34Z</time>
      </trkpt>
      <trkpt lat="47.00707" lon="5.54376">
        <ele>200.572266</ele>
        <time>2011-12-08T14:37:55Z</time>
      </trkpt>
      <trkpt lat="47.00697" lon="5.54409">
        <ele>200.572266</ele>
        <time>2011-12-08T14:38:15Z</time>
      </trkpt>
      <trkpt lat="47.00686" lon="5.54439">
        <ele>201.052856</ele>
        <time>2011-12-08T14:38:36Z</time>
      </trkpt>
      <trkpt lat="47.00673" lon="5.5447">
        <ele>201.052856</ele>
        <time>2011-12-08T14:38:57Z</time>
      </trkpt>
      <trkpt lat="47.00665" lon="5.54493">
        <ele>202.014282</ele>
        <time>2011-12-08T14:39:12Z</time>
      </trkpt>
      <trkpt lat="47.00656" lon="5.54524">
        <ele>201.052856</ele>
        <time>2011-12-08T14:39:30Z</time>
      </trkpt>
      <trkpt lat="47.00646" lon="5.54558">
        <ele>201.052856</ele>
        <time>2011-12-08T14:39:50Z</time>
      </trkpt>
      <trkpt lat="47.00629" lon="5.54595">
        <ele>202.014282</ele>
        <time>2011-12-08T14:40:14Z</time>
      </trkpt>
      <trkpt lat="47.00608" lon="5.5462">
        <ele>202.494873</ele>
        <time>2011-12-08T14:40:37Z</time>
      </trkpt>
      <trkpt lat="47.00597" lon="5.54645">
        <ele>202.014282</ele>
        <time>2011-12-08T14:40:54Z</time>
      </trkpt>
      <trkpt lat="47.00588" lon="5.54675">
        <ele>202.494873</ele>
        <time>2011-12-08T14:41:13Z</time>
      </trkpt>
      <trkpt lat="47.00578" lon="5.54718">
        <ele>202.494873</ele>
        <time>2011-12-08T14:41:37Z</time>
      </trkpt>
      <trkpt lat="47.00565" lon="5.54754">
        <ele>202.014282</ele>
        <time>2011-12-08T14:42:00Z</time>
      </trkpt>
      <trkpt lat="47.00547" lon="5.54772">
        <ele>202.014282</ele>
        <time>2011-12-08T14:42:18Z</time>
      </trkpt>
      <trkpt lat="47.00537" lon="5.54765">
        <ele>202.014282</ele>
        <time>2011-12-08T14:42:28Z</time>
      </trkpt>
      <trkpt lat="47.00512" lon="5.54758">
        <ele>202.014282</ele>
        <time>2011-12-08T14:42:48Z</time>
      </trkpt>
      <trkpt lat="47.00484" lon="5.54748">
        <ele>201.533569</ele>
        <time>2011-12-08T14:43:10Z</time>
      </trkpt>
      <trkpt lat="47.00455" lon="5.54739">
        <ele>202.014282</ele>
        <time>2011-12-08T14:43:32Z</time>
      </trkpt>
      <trkpt lat="47.00448" lon="5.54735">
        <ele>202.014282</ele>
        <time>2011-12-08T14:43:38Z</time>
      </trkpt>
      <trkpt lat="47.00444" lon="5.54732">
        <ele>202.014282</ele>
        <time>2011-12-08T14:43:42Z</time>
      </trkpt>
      <trkpt lat="47.00441" lon="5.5473">
        <ele>202.014282</ele>
        <time>2011-12-08T14:43:45Z</time>
      </trkpt>
      <trkpt lat="47.00414" lon="5.54714">
        <ele>202.494873</ele>
        <time>2011-12-08T14:44:07Z</time>
      </trkpt>
      <trkpt lat="47.00413" lon="5.54714">
        <ele>202.014282</ele>
        <time>2011-12-08T14:44:08Z</time>
      </trkpt>
      <trkpt lat="47.00394" lon="5.54703">
        <ele>201.533569</ele>
        <time>2011-12-08T14:44:25Z</time>
      </trkpt>
      <trkpt lat="47.00365" lon="5.54685">
        <ele>201.052856</ele>
        <time>2011-12-08T14:44:51Z</time>
      </trkpt>
      <trkpt lat="47.00342" lon="5.54674">
        <ele>202.014282</ele>
        <time>2011-12-08T14:45:10Z</time>
      </trkpt>
      <trkpt lat="47.00306" lon="5.54656">
        <ele>201.533569</ele>
        <time>2011-12-08T14:45:40Z</time>
      </trkpt>
      <trkpt lat="47.00283" lon="5.5465">
        <ele>202.494873</ele>
        <time>2011-12-08T14:45:59Z</time>
      </trkpt>
      <trkpt lat="47.00279" lon="5.54651">
        <ele>201.533569</ele>
        <time>2011-12-08T14:46:02Z</time>
      </trkpt>
      <trkpt lat="47.00271" lon="5.54686">
        <ele>202.014282</ele>
        <time>2011-12-08T14:46:23Z</time>
      </trkpt>
      <trkpt lat="47.00261" lon="5.5473">
        <ele>202.014282</ele>
        <time>2011-12-08T14:46:46Z</time>
      </trkpt>
      <trkpt lat="47.0025" lon="5.54772">
        <ele>202.014282</ele>
        <time>2011-12-08T14:47:10Z</time>
      </trkpt>
      <trkpt lat="47.00237" lon="5.54834">
        <ele>202.014282</ele>
        <time>2011-12-08T14:47:42Z</time>
      </trkpt>
      <trkpt lat="47.00222" lon="5.54891">
        <ele>201.533569</ele>
        <time>2011-12-08T14:48:13Z</time>
      </trkpt>
      <trkpt lat="47.00209" lon="5.54942">
        <ele>202.014282</ele>
        <time>2011-12-08T14:48:40Z</time>
      </trkpt>
      <trkpt lat="47.00197" lon="5.54989">
        <ele>201.533569</ele>
        <time>2011-12-08T14:49:04Z</time>
      </trkpt>
      <trkpt lat="47.00188" lon="5.55025">
        <ele>202.014282</ele>
        <time>2011-12-08T14:49:24Z</time>
      </trkpt>
      <trkpt lat="47.00179" lon="5.55072">
        <ele>202.014282</ele>
        <time>2011-12-08T14:49:49Z</time>
      </trkpt>
      <trkpt lat="47.00171" lon="5.55101">
        <ele>202.014282</ele>
        <time>2011-12-08T14:50:07Z</time>
      </trkpt>
      <trkpt lat="47.00156" lon="5.55129">
        <ele>202.014282</ele>
        <time>2011-12-08T14:50:27Z</time>
      </trkpt>
      <trkpt lat="47.00131" lon="5.55119">
        <ele>202.014282</ele>
        <time>2011-12-08T14:50:46Z</time>
      </trkpt>
      <trkpt lat="47.00098" lon="5.55108">
        <ele>201.533569</ele>
        <time>2011-12-08T14:51:10Z</time>
      </trkpt>
      <trkpt lat="47.00097" lon="5.55107">
        <ele>201.533569</ele>
        <time>2011-12-08T14:51:11Z</time>
      </trkpt>
      <trkpt lat="47.0007" lon="5.55095">
        <ele>202.014282</ele>
        <time>2011-12-08T14:51:32Z</time>
      </trkpt>
      <trkpt lat="47.00047" lon="5.55085">
        <ele>202.014282</ele>
        <time>2011-12-08T14:51:52Z</time>
      </trkpt>
      <trkpt lat="47.00037" lon="5.55081">
        <ele>202.014282</ele>
        <time>2011-12-08T14:52:00Z</time>
      </trkpt>
      <trkpt lat="47.00004" lon="5.55073">
        <ele>201.533569</ele>
        <time>2011-12-08T14:52:26Z</time>
      </trkpt>
      <trkpt lat="46.99999" lon="5.55072">
        <ele>201.533569</ele>
        <time>2011-12-08T14:52:29Z</time>
      </trkpt>
      <trkpt lat="46.9997" lon="5.55058">
        <ele>201.052856</ele>
        <time>2011-12-08T14:52:52Z</time>
      </trkpt>
      <trkpt lat="46.99933" lon="5.5504">
        <ele>201.052856</ele>
        <time>2011-12-08T14:53:23Z</time>
      </trkpt>
      <trkpt lat="46.99912" lon="5.55031">
        <ele>200.572266</ele>
        <time>2011-12-08T14:53:39Z</time>
      </trkpt>
      <trkpt lat="46.99895" lon="5.55022">
        <ele>200.572266</ele>
        <time>2011-12-08T14:53:52Z</time>
      </trkpt>
      <trkpt lat="46.9987" lon="5.55008">
        <ele>200.091675</ele>
        <time>2011-12-08T14:54:13Z</time>
      </trkpt>
      <trkpt lat="46.99851" lon="5.5501">
        <ele>200.091675</ele>
        <time>2011-12-08T14:54:30Z</time>
      </trkpt>
      <trkpt lat="46.99845" lon="5.5504">
        <ele>200.572266</ele>
        <time>2011-12-08T14:54:47Z</time>
      </trkpt>
      <trkpt lat="46.99839" lon="5.55067">
        <ele>200.091675</ele>
        <time>2011-12-08T14:55:02Z</time>
      </trkpt>
      <trkpt lat="46.99833" lon="5.5509">
        <ele>200.091675</ele>
        <time>2011-12-08T14:55:16Z</time>
      </trkpt>
      <trkpt lat="46.99831" lon="5.55092">
        <ele>199.61084</ele>
        <time>2011-12-08T14:55:46Z</time>
      </trkpt>
      <trkpt lat="46.99832" lon="5.55092">
        <ele>199.130127</ele>
        <time>2011-12-08T14:56:52Z</time>
      </trkpt>
      <trkpt lat="46.99832" lon="5.55092">
        <ele>196.246338</ele>
        <time>2011-12-08T14:58:19Z</time>
      </trkpt>
      <trkpt lat="46.99832" lon="5.55092">
        <ele>196.726929</ele>
        <time>2011-12-08T14:58:20Z</time>
      </trkpt>
      <trkpt lat="46.99832" lon="5.55092">
        <ele>198.649536</ele>
        <time>2011-12-08T14:58:22Z</time>
      </trkpt>
      <trkpt lat="46.99834" lon="5.55091">
        <ele>197.688232</ele>
        <time>2011-12-08T14:59:32Z</time>
      </trkpt>
      <trkpt lat="46.99825" lon="5.55096">
        <ele>197.688232</ele>
        <time>2011-12-08T15:00:30Z</time>
      </trkpt>
      <trkpt lat="46.9982" lon="5.55095">
        <ele>197.688232</ele>
        <time>2011-12-08T15:00:51Z</time>
      </trkpt>
      <trkpt lat="46.99815" lon="5.55093">
        <ele>197.688232</ele>
        <time>2011-12-08T15:01:04Z</time>
      </trkpt>
      <trkpt lat="46.99811" lon="5.55088">
        <ele>197.20752</ele>
        <time>2011-12-08T15:01:08Z</time>
      </trkpt>
      <trkpt lat="46.99809" lon="5.55073">
        <ele>196.726929</ele>
        <time>2011-12-08T15:01:21Z</time>
      </trkpt>
      <trkpt lat="46.99807" lon="5.55066">
        <ele>196.726929</ele>
        <time>2011-12-08T15:01:25Z</time>
      </trkpt>
      <trkpt lat="46.99802" lon="5.55037">
        <ele>196.726929</ele>
        <time>2011-12-08T15:01:41Z</time>
      </trkpt>
      <trkpt lat="46.99807" lon="5.55012">
        <ele>197.20752</ele>
        <time>2011-12-08T15:02:00Z</time>
      </trkpt>
      <trkpt lat="46.99807" lon="5.55011">
        <ele>197.20752</ele>
        <time>2011-12-08T15:02:01Z</time>
      </trkpt>
      <trkpt lat="46.99802" lon="5.54986">
        <ele>197.20752</ele>
        <time>2011-12-08T15:02:16Z</time>
      </trkpt>
      <trkpt lat="46.998" lon="5.54979">
        <ele>196.726929</ele>
        <time>2011-12-08T15:02:20Z</time>
      </trkpt>
      <trkpt lat="46.9979" lon="5.54965">
        <ele>196.726929</ele>
        <time>2011-12-08T15:02:27Z</time>
      </trkpt>
      <trkpt lat="46.99785" lon="5.54962">
        <ele>196.726929</ele>
        <time>2011-12-08T15:02:32Z</time>
      </trkpt>
      <trkpt lat="46.99767" lon="5.54953">
        <ele>196.726929</ele>
        <time>2011-12-08T15:02:48Z</time>
      </trkpt>
      <trkpt lat="46.99743" lon="5.54954">
        <ele>197.20752</ele>
        <time>2011-12-08T15:03:05Z</time>
      </trkpt>
      <trkpt lat="46.99712" lon="5.54943">
        <ele>197.20752</ele>
        <time>2011-12-08T15:03:29Z</time>
      </trkpt>
      <trkpt lat="46.99684" lon="5.54935">
        <ele>197.20752</ele>
        <time>2011-12-08T15:03:52Z</time>
      </trkpt>
      <trkpt lat="46.99681" lon="5.54935">
        <ele>197.20752</ele>
        <time>2011-12-08T15:03:54Z</time>
      </trkpt>
      <trkpt lat="46.99675" lon="5.54932">
        <ele>197.688232</ele>
        <time>2011-12-08T15:03:59Z</time>
      </trkpt>
      <trkpt lat="46.99653" lon="5.54922">
        <ele>197.688232</ele>
        <time>2011-12-08T15:04:18Z</time>
      </trkpt>
      <trkpt lat="46.99622" lon="5.54914">
        <ele>198.168945</ele>
        <time>2011-12-08T15:04:42Z</time>
      </trkpt>
      <trkpt lat="46.99581" lon="5.54896">
        <ele>198.168945</ele>
        <time>2011-12-08T15:05:15Z</time>
      </trkpt>
      <trkpt lat="46.99545" lon="5.54882">
        <ele>199.130127</ele>
        <time>2011-12-08T15:05:44Z</time>
      </trkpt>
      <trkpt lat="46.9952" lon="5.54873">
        <ele>199.61084</ele>
        <time>2011-12-08T15:06:05Z</time>
      </trkpt>
      <trkpt lat="46.995" lon="5.54872">
        <ele>201.052856</ele>
        <time>2011-12-08T15:06:24Z</time>
      </trkpt>
      <trkpt lat="46.99498" lon="5.54875">
        <ele>200.572266</ele>
        <time>2011-12-08T15:06:27Z</time>
      </trkpt>
      <trkpt lat="46.99486" lon="5.54917">
        <ele>202.014282</ele>
        <time>2011-12-08T15:06:50Z</time>
      </trkpt>
      <trkpt lat="46.99478" lon="5.54944">
        <ele>201.052856</ele>
        <time>2011-12-08T15:07:07Z</time>
      </trkpt>
      <trkpt lat="46.99475" lon="5.5495">
        <ele>201.052856</ele>
        <time>2011-12-08T15:07:11Z</time>
      </trkpt>
      <trkpt lat="46.99468" lon="5.54974">
        <ele>201.533569</ele>
        <time>2011-12-08T15:07:26Z</time>
      </trkpt>
      <trkpt lat="46.99467" lon="5.54976">
        <ele>201.533569</ele>
        <time>2011-12-08T15:07:27Z</time>
      </trkpt>
      <trkpt lat="46.99462" lon="5.54998">
        <ele>201.533569</ele>
        <time>2011-12-08T15:07:39Z</time>
      </trkpt>
      <trkpt lat="46.99458" lon="5.55016">
        <ele>201.533569</ele>
        <time>2011-12-08T15:07:51Z</time>
      </trkpt>
      <trkpt lat="46.99457" lon="5.55019">
        <ele>202.014282</ele>
        <time>2011-12-08T15:07:53Z</time>
      </trkpt>
      <trkpt lat="46.99447" lon="5.55034">
        <ele>202.014282</ele>
        <time>2011-12-08T15:08:05Z</time>
      </trkpt>
      <trkpt lat="46.99438" lon="5.55064">
        <ele>202.014282</ele>
        <time>2011-12-08T15:08:20Z</time>
      </trkpt>
      <trkpt lat="46.99431" lon="5.55089">
        <ele>201.533569</ele>
        <time>2011-12-08T15:08:37Z</time>
      </trkpt>
      <trkpt lat="46.99427" lon="5.55091">
        <ele>202.014282</ele>
        <time>2011-12-08T15:08:42Z</time>
      </trkpt>
      <trkpt lat="46.99425" lon="5.55087">
        <ele>202.975464</ele>
        <time>2011-12-08T15:08:45Z</time>
      </trkpt>
      <trkpt lat="46.99423" lon="5.55087">
        <ele>202.975464</ele>
        <time>2011-12-08T15:08:47Z</time>
      </trkpt>
      <trkpt lat="46.99419" lon="5.55084">
        <ele>203.93689</ele>
        <time>2011-12-08T15:08:51Z</time>
      </trkpt>
      <trkpt lat="46.99399" lon="5.55068">
        <ele>204.898071</ele>
        <time>2011-12-08T15:09:11Z</time>
      </trkpt>
      <trkpt lat="46.99387" lon="5.55034">
        <ele>206.820679</ele>
        <time>2011-12-08T15:09:31Z</time>
      </trkpt>
      <trkpt lat="46.99387" lon="5.5503">
        <ele>207.782104</ele>
        <time>2011-12-08T15:09:33Z</time>
      </trkpt>
      <trkpt lat="46.99388" lon="5.5502">
        <ele>207.782104</ele>
        <time>2011-12-08T15:09:39Z</time>
      </trkpt>
      <trkpt lat="46.9939" lon="5.54994">
        <ele>208.262817</ele>
        <time>2011-12-08T15:09:52Z</time>
      </trkpt>
      <trkpt lat="46.9939" lon="5.54971">
        <ele>209.224121</ele>
        <time>2011-12-08T15:10:03Z</time>
      </trkpt>
      <trkpt lat="46.99389" lon="5.54966">
        <ele>209.704834</ele>
        <time>2011-12-08T15:10:07Z</time>
      </trkpt>
      <trkpt lat="46.9939" lon="5.54959">
        <ele>209.704834</ele>
        <time>2011-12-08T15:10:11Z</time>
      </trkpt>
      <trkpt lat="46.99383" lon="5.54944">
        <ele>210.185425</ele>
        <time>2011-12-08T15:10:27Z</time>
      </trkpt>
      <trkpt lat="46.99381" lon="5.54943">
        <ele>210.666016</ele>
        <time>2011-12-08T15:10:31Z</time>
      </trkpt>
      <trkpt lat="46.99371" lon="5.54931">
        <ele>211.146729</ele>
        <time>2011-12-08T15:10:42Z</time>
      </trkpt>
      <trkpt lat="46.99356" lon="5.54909">
        <ele>212.108032</ele>
        <time>2011-12-08T15:10:58Z</time>
      </trkpt>
      <trkpt lat="46.99352" lon="5.54904">
        <ele>212.108032</ele>
        <time>2011-12-08T15:11:03Z</time>
      </trkpt>
      <trkpt lat="46.99334" lon="5.54892">
        <ele>213.069336</ele>
        <time>2011-12-08T15:11:17Z</time>
      </trkpt>
      <trkpt lat="46.99328" lon="5.5489">
        <ele>213.550049</ele>
        <time>2011-12-08T15:11:23Z</time>
      </trkpt>
      <trkpt lat="46.99307" lon="5.54881">
        <ele>214.51123</ele>
        <time>2011-12-08T15:11:43Z</time>
      </trkpt>
      <trkpt lat="46.99305" lon="5.5488">
        <ele>214.51123</ele>
        <time>2011-12-08T15:11:44Z</time>
      </trkpt>
      <trkpt lat="46.99288" lon="5.54868">
        <ele>215.472656</ele>
        <time>2011-12-08T15:12:05Z</time>
      </trkpt>
      <trkpt lat="46.9926" lon="5.54857">
        <ele>216.914673</ele>
        <time>2011-12-08T15:12:31Z</time>
      </trkpt>
      <trkpt lat="46.99236" lon="5.54841">
        <ele>217.875977</ele>
        <time>2011-12-08T15:12:53Z</time>
      </trkpt>
      <trkpt lat="46.99202" lon="5.54833">
        <ele>219.317993</ele>
        <time>2011-12-08T15:13:14Z</time>
      </trkpt>
      <trkpt lat="46.99201" lon="5.54833">
        <ele>219.798584</ele>
        <time>2011-12-08T15:13:15Z</time>
      </trkpt>
      <trkpt lat="46.99191" lon="5.54836">
        <ele>219.798584</ele>
        <time>2011-12-08T15:13:22Z</time>
      </trkpt>
      <trkpt lat="46.99185" lon="5.54841">
        <ele>219.317993</ele>
        <time>2011-12-08T15:13:27Z</time>
      </trkpt>
      <trkpt lat="46.99164" lon="5.54854">
        <ele>219.798584</ele>
        <time>2011-12-08T15:13:44Z</time>
      </trkpt>
      <trkpt lat="46.99151" lon="5.54862">
        <ele>219.317993</ele>
        <time>2011-12-08T15:13:56Z</time>
      </trkpt>
      <trkpt lat="46.99146" lon="5.54865">
        <ele>219.798584</ele>
        <time>2011-12-08T15:14:00Z</time>
      </trkpt>
      <trkpt lat="46.99124" lon="5.54862">
        <ele>219.798584</ele>
        <time>2011-12-08T15:14:16Z</time>
      </trkpt>
      <trkpt lat="46.9912" lon="5.54861">
        <ele>219.317993</ele>
        <time>2011-12-08T15:14:19Z</time>
      </trkpt>
      <trkpt lat="46.99118" lon="5.54863">
        <ele>219.798584</ele>
        <time>2011-12-08T15:14:21Z</time>
      </trkpt>
      <trkpt lat="46.99113" lon="5.54864">
        <ele>219.317993</ele>
        <time>2011-12-08T15:14:25Z</time>
      </trkpt>
      <trkpt lat="46.99091" lon="5.54855">
        <ele>219.798584</ele>
        <time>2011-12-08T15:14:42Z</time>
      </trkpt>
      <trkpt lat="46.9907" lon="5.54839">
        <ele>220.279175</ele>
        <time>2011-12-08T15:15:01Z</time>
      </trkpt>
      <trkpt lat="46.99048" lon="5.54816">
        <ele>219.798584</ele>
        <time>2011-12-08T15:15:21Z</time>
      </trkpt>
      <trkpt lat="46.99023" lon="5.5479">
        <ele>220.279175</ele>
        <time>2011-12-08T15:15:43Z</time>
      </trkpt>
      <trkpt lat="46.99003" lon="5.54773">
        <ele>219.317993</ele>
        <time>2011-12-08T15:16:04Z</time>
      </trkpt>
      <trkpt lat="46.98994" lon="5.54769">
        <ele>219.798584</ele>
        <time>2011-12-08T15:16:11Z</time>
      </trkpt>
      <trkpt lat="46.9899" lon="5.54768">
        <ele>219.798584</ele>
        <time>2011-12-08T15:16:14Z</time>
      </trkpt>
      <trkpt lat="46.98971" lon="5.54744">
        <ele>219.317993</ele>
        <time>2011-12-08T15:16:32Z</time>
      </trkpt>
      <trkpt lat="46.98943" lon="5.54718">
        <ele>217.875977</ele>
        <time>2011-12-08T15:16:57Z</time>
      </trkpt>
      <trkpt lat="46.98914" lon="5.54695">
        <ele>216.43396</ele>
        <time>2011-12-08T15:17:21Z</time>
      </trkpt>
      <trkpt lat="46.98893" lon="5.54686">
        <ele>216.914673</ele>
        <time>2011-12-08T15:17:39Z</time>
      </trkpt>
      <trkpt lat="46.98863" lon="5.54673">
        <ele>216.43396</ele>
        <time>2011-12-08T15:18:02Z</time>
      </trkpt>
      <trkpt lat="46.98834" lon="5.54673">
        <ele>215.953247</ele>
        <time>2011-12-08T15:18:25Z</time>
      </trkpt>
      <trkpt lat="46.98819" lon="5.54678">
        <ele>215.953247</ele>
        <time>2011-12-08T15:18:37Z</time>
      </trkpt>
      <trkpt lat="46.98814" lon="5.54684">
        <ele>215.953247</ele>
        <time>2011-12-08T15:18:42Z</time>
      </trkpt>
      <trkpt lat="46.98782" lon="5.54693">
        <ele>216.43396</ele>
        <time>2011-12-08T15:19:05Z</time>
      </trkpt>
      <trkpt lat="46.98768" lon="5.54697">
        <ele>216.914673</ele>
        <time>2011-12-08T15:19:16Z</time>
      </trkpt>
      <trkpt lat="46.98758" lon="5.54701">
        <ele>216.914673</ele>
        <time>2011-12-08T15:19:23Z</time>
      </trkpt>
      <trkpt lat="46.98741" lon="5.54702">
        <ele>217.395386</ele>
        <time>2011-12-08T15:19:35Z</time>
      </trkpt>
      <trkpt lat="46.98717" lon="5.54701">
        <ele>218.356567</ele>
        <time>2011-12-08T15:19:56Z</time>
      </trkpt>
      <trkpt lat="46.98716" lon="5.54702">
        <ele>218.356567</ele>
        <time>2011-12-08T15:19:57Z</time>
      </trkpt>
      <trkpt lat="46.98714" lon="5.54701">
        <ele>218.83728</ele>
        <time>2011-12-08T15:19:59Z</time>
      </trkpt>
      <trkpt lat="46.98692" lon="5.54701">
        <ele>219.798584</ele>
        <time>2011-12-08T15:20:15Z</time>
      </trkpt>
      <trkpt lat="46.98685" lon="5.547">
        <ele>219.798584</ele>
        <time>2011-12-08T15:20:20Z</time>
      </trkpt>
      <trkpt lat="46.98673" lon="5.54696">
        <ele>219.798584</ele>
        <time>2011-12-08T15:20:27Z</time>
      </trkpt>
      <trkpt lat="46.98652" lon="5.54699">
        <ele>220.279175</ele>
        <time>2011-12-08T15:20:42Z</time>
      </trkpt>
      <trkpt lat="46.98634" lon="5.54702">
        <ele>220.759888</ele>
        <time>2011-12-08T15:20:56Z</time>
      </trkpt>
      <trkpt lat="46.98628" lon="5.54701">
        <ele>220.759888</ele>
        <time>2011-12-08T15:21:01Z</time>
      </trkpt>
      <trkpt lat="46.98623" lon="5.54698">
        <ele>221.240601</ele>
        <time>2011-12-08T15:21:05Z</time>
      </trkpt>
      <trkpt lat="46.98611" lon="5.54693">
        <ele>221.721191</ele>
        <time>2011-12-08T15:21:16Z</time>
      </trkpt>
      <trkpt lat="46.98606" lon="5.54691">
        <ele>221.721191</ele>
        <time>2011-12-08T15:21:20Z</time>
      </trkpt>
      <trkpt lat="46.98578" lon="5.54684">
        <ele>222.201782</ele>
        <time>2011-12-08T15:21:41Z</time>
      </trkpt>
      <trkpt lat="46.98572" lon="5.54682">
        <ele>222.201782</ele>
        <time>2011-12-08T15:21:46Z</time>
      </trkpt>
      <trkpt lat="46.9857" lon="5.5468">
        <ele>222.682495</ele>
        <time>2011-12-08T15:21:48Z</time>
      </trkpt>
      <trkpt lat="46.98553" lon="5.54674">
        <ele>223.163208</ele>
        <time>2011-12-08T15:22:03Z</time>
      </trkpt>
      <trkpt lat="46.98535" lon="5.54664">
        <ele>224.124512</ele>
        <time>2011-12-08T15:22:19Z</time>
      </trkpt>
      <trkpt lat="46.98523" lon="5.54637">
        <ele>225.085938</ele>
        <time>2011-12-08T15:22:33Z</time>
      </trkpt>
      <trkpt lat="46.98509" lon="5.54606">
        <ele>226.047119</ele>
        <time>2011-12-08T15:22:51Z</time>
      </trkpt>
      <trkpt lat="46.985" lon="5.5458">
        <ele>226.047119</ele>
        <time>2011-12-08T15:23:05Z</time>
      </trkpt>
      <trkpt lat="46.98493" lon="5.54566">
        <ele>226.527832</ele>
        <time>2011-12-08T15:23:15Z</time>
      </trkpt>
      <trkpt lat="46.98471" lon="5.54539">
        <ele>227.489136</ele>
        <time>2011-12-08T15:23:32Z</time>
      </trkpt>
      <trkpt lat="46.98461" lon="5.54517">
        <ele>227.489136</ele>
        <time>2011-12-08T15:23:46Z</time>
      </trkpt>
      <trkpt lat="46.98457" lon="5.54507">
        <ele>227.489136</ele>
        <time>2011-12-08T15:23:53Z</time>
      </trkpt>
      <trkpt lat="46.98457" lon="5.54504">
        <ele>227.969727</ele>
        <time>2011-12-08T15:23:55Z</time>
      </trkpt>
      <trkpt lat="46.98454" lon="5.54502">
        <ele>227.489136</ele>
        <time>2011-12-08T15:23:59Z</time>
      </trkpt>
      <trkpt lat="46.98444" lon="5.54477">
        <ele>227.008545</ele>
        <time>2011-12-08T15:24:13Z</time>
      </trkpt>
      <trkpt lat="46.98434" lon="5.54458">
        <ele>227.008545</ele>
        <time>2011-12-08T15:24:24Z</time>
      </trkpt>
      <trkpt lat="46.98425" lon="5.54433">
        <ele>226.527832</ele>
        <time>2011-12-08T15:24:40Z</time>
      </trkpt>
      <trkpt lat="46.98429" lon="5.54431">
        <ele>227.008545</ele>
        <time>2011-12-08T15:24:56Z</time>
      </trkpt>
      <trkpt lat="46.98437" lon="5.54441">
        <ele>227.489136</ele>
        <time>2011-12-08T15:25:12Z</time>
      </trkpt>
      <trkpt lat="46.98437" lon="5.54442">
        <ele>227.969727</ele>
        <time>2011-12-08T15:25:13Z</time>
      </trkpt>
      <trkpt lat="46.98445" lon="5.54461">
        <ele>227.969727</ele>
        <time>2011-12-08T15:25:27Z</time>
      </trkpt>
      <trkpt lat="46.98448" lon="5.54469">
        <ele>227.969727</ele>
        <time>2011-12-08T15:25:32Z</time>
      </trkpt>
      <trkpt lat="46.98455" lon="5.54485">
        <ele>228.450439</ele>
        <time>2011-12-08T15:25:43Z</time>
      </trkpt>
      <trkpt lat="46.98457" lon="5.54486">
        <ele>228.450439</ele>
        <time>2011-12-08T15:25:45Z</time>
      </trkpt>
      <trkpt lat="46.98465" lon="5.54512">
        <ele>227.489136</ele>
        <time>2011-12-08T15:25:59Z</time>
      </trkpt>
      <trkpt lat="46.98467" lon="5.54514">
        <ele>227.969727</ele>
        <time>2011-12-08T15:26:01Z</time>
      </trkpt>
      <trkpt lat="46.98472" lon="5.54522">
        <ele>228.931152</ele>
        <time>2011-12-08T15:26:16Z</time>
      </trkpt>
      <trkpt lat="46.98468" lon="5.54513">
        <ele>228.450439</ele>
        <time>2011-12-08T15:26:34Z</time>
      </trkpt>
      <trkpt lat="46.98463" lon="5.54506">
        <ele>228.931152</ele>
        <time>2011-12-08T15:26:39Z</time>
      </trkpt>
      <trkpt lat="46.98448" lon="5.54476">
        <ele>228.931152</ele>
        <time>2011-12-08T15:26:59Z</time>
      </trkpt>
      <trkpt lat="46.98447" lon="5.54476">
        <ele>228.931152</ele>
        <time>2011-12-08T15:27:15Z</time>
      </trkpt>
      <trkpt lat="46.98438" lon="5.54457">
        <ele>228.450439</ele>
        <time>2011-12-08T15:27:41Z</time>
      </trkpt>
      <trkpt lat="46.98417" lon="5.5442">
        <ele>227.969727</ele>
        <time>2011-12-08T15:28:04Z</time>
      </trkpt>
      <trkpt lat="46.98399" lon="5.54386">
        <ele>227.489136</ele>
        <time>2011-12-08T15:28:24Z</time>
      </trkpt>
      <trkpt lat="46.98395" lon="5.54378">
        <ele>227.008545</ele>
        <time>2011-12-08T15:28:28Z</time>
      </trkpt>
      <trkpt lat="46.98383" lon="5.54357">
        <ele>227.008545</ele>
        <time>2011-12-08T15:28:42Z</time>
      </trkpt>
      <trkpt lat="46.98369" lon="5.5433">
        <ele>227.008545</ele>
        <time>2011-12-08T15:28:59Z</time>
      </trkpt>
      <trkpt lat="46.98358" lon="5.54301">
        <ele>227.969727</ele>
        <time>2011-12-08T15:29:16Z</time>
      </trkpt>
      <trkpt lat="46.98357" lon="5.54298">
        <ele>227.489136</ele>
        <time>2011-12-08T15:29:18Z</time>
      </trkpt>
      <trkpt lat="46.98354" lon="5.54295">
        <ele>227.489136</ele>
        <time>2011-12-08T15:29:21Z</time>
      </trkpt>
      <trkpt lat="46.98352" lon="5.54289">
        <ele>227.489136</ele>
        <time>2011-12-08T15:29:27Z</time>
      </trkpt>
      <trkpt lat="46.98342" lon="5.54269">
        <ele>227.969727</ele>
        <time>2011-12-08T15:29:39Z</time>
      </trkpt>
      <trkpt lat="46.98328" lon="5.5424">
        <ele>228.450439</ele>
        <time>2011-12-08T15:29:56Z</time>
      </trkpt>
      <trkpt lat="46.98328" lon="5.54238">
        <ele>228.450439</ele>
        <time>2011-12-08T15:29:57Z</time>
      </trkpt>
      <trkpt lat="46.98317" lon="5.54211">
        <ele>228.931152</ele>
        <time>2011-12-08T15:30:11Z</time>
      </trkpt>
      <trkpt lat="46.98306" lon="5.54194">
        <ele>228.931152</ele>
        <time>2011-12-08T15:30:24Z</time>
      </trkpt>
      <trkpt lat="46.98297" lon="5.54175">
        <ele>229.411743</ele>
        <time>2011-12-08T15:30:34Z</time>
      </trkpt>
      <trkpt lat="46.98293" lon="5.5416">
        <ele>229.892334</ele>
        <time>2011-12-08T15:30:44Z</time>
      </trkpt>
      <trkpt lat="46.98285" lon="5.54144">
        <ele>230.85376</ele>
        <time>2011-12-08T15:30:52Z</time>
      </trkpt>
      <trkpt lat="46.98281" lon="5.54133">
        <ele>230.85376</ele>
        <time>2011-12-08T15:30:58Z</time>
      </trkpt>
      <trkpt lat="46.98269" lon="5.54114">
        <ele>231.334351</ele>
        <time>2011-12-08T15:31:11Z</time>
      </trkpt>
      <trkpt lat="46.98256" lon="5.54091">
        <ele>231.814941</ele>
        <time>2011-12-08T15:31:25Z</time>
      </trkpt>
      <trkpt lat="46.98255" lon="5.54085">
        <ele>231.814941</ele>
        <time>2011-12-08T15:31:28Z</time>
      </trkpt>
      <trkpt lat="46.9825" lon="5.54081">
        <ele>232.295776</ele>
        <time>2011-12-08T15:31:39Z</time>
      </trkpt>
      <trkpt lat="46.98239" lon="5.54073">
        <ele>232.295776</ele>
        <time>2011-12-08T15:31:46Z</time>
      </trkpt>
      <trkpt lat="46.98225" lon="5.54042">
        <ele>232.776489</ele>
        <time>2011-12-08T15:32:00Z</time>
      </trkpt>
      <trkpt lat="46.98223" lon="5.5404">
        <ele>232.776489</ele>
        <time>2011-12-08T15:32:02Z</time>
      </trkpt>
      <trkpt lat="46.98216" lon="5.54025">
        <ele>232.776489</ele>
        <time>2011-12-08T15:32:12Z</time>
      </trkpt>
      <trkpt lat="46.98205" lon="5.53999">
        <ele>232.776489</ele>
        <time>2011-12-08T15:32:26Z</time>
      </trkpt>
      <trkpt lat="46.98206" lon="5.53988">
        <ele>232.776489</ele>
        <time>2011-12-08T15:32:40Z</time>
      </trkpt>
      <trkpt lat="46.98204" lon="5.53971">
        <ele>233.25708</ele>
        <time>2011-12-08T15:32:57Z</time>
      </trkpt>
      <trkpt lat="46.98205" lon="5.53969">
        <ele>233.25708</ele>
        <time>2011-12-08T15:32:59Z</time>
      </trkpt>
      <trkpt lat="46.98209" lon="5.5396">
        <ele>233.25708</ele>
        <time>2011-12-08T15:33:05Z</time>
      </trkpt>
      <trkpt lat="46.98215" lon="5.53946">
        <ele>233.25708</ele>
        <time>2011-12-08T15:33:25Z</time>
      </trkpt>
      <trkpt lat="46.98214" lon="5.53934">
        <ele>232.776489</ele>
        <time>2011-12-08T15:33:50Z</time>
      </trkpt>
      <trkpt lat="46.98213" lon="5.5393">
        <ele>233.25708</ele>
        <time>2011-12-08T15:35:52Z</time>
      </trkpt>
      <trkpt lat="46.98213" lon="5.53928">
        <ele>234.699097</ele>
        <time>2011-12-08T15:44:20Z</time>
      </trkpt>
      <trkpt lat="46.98212" lon="5.53925">
        <ele>234.699097</ele>
        <time>2011-12-08T15:44:21Z</time>
      </trkpt>
      <trkpt lat="46.98216" lon="5.53914">
        <ele>234.699097</ele>
        <time>2011-12-08T15:44:29Z</time>
      </trkpt>
      <trkpt lat="46.98222" lon="5.53901">
        <ele>234.218384</ele>
        <time>2011-12-08T15:44:41Z</time>
      </trkpt>
      <trkpt lat="46.98224" lon="5.53897">
        <ele>234.218384</ele>
        <time>2011-12-08T15:44:44Z</time>
      </trkpt>
      <trkpt lat="46.98229" lon="5.5388">
        <ele>233.25708</ele>
        <time>2011-12-08T15:45:00Z</time>
      </trkpt>
      <trkpt lat="46.98236" lon="5.53841">
        <ele>232.776489</ele>
        <time>2011-12-08T15:45:23Z</time>
      </trkpt>
      <trkpt lat="46.98244" lon="5.5381">
        <ele>231.814941</ele>
        <time>2011-12-08T15:45:44Z</time>
      </trkpt>
      <trkpt lat="46.98252" lon="5.53775">
        <ele>230.85376</ele>
        <time>2011-12-08T15:46:04Z</time>
      </trkpt>
      <trkpt lat="46.98258" lon="5.53746">
        <ele>229.892334</ele>
        <time>2011-12-08T15:46:23Z</time>
      </trkpt>
      <trkpt lat="46.98263" lon="5.53703">
        <ele>228.450439</ele>
        <time>2011-12-08T15:46:46Z</time>
      </trkpt>
      <trkpt lat="46.98267" lon="5.53677">
        <ele>227.489136</ele>
        <time>2011-12-08T15:47:06Z</time>
      </trkpt>
      <trkpt lat="46.98272" lon="5.53651">
        <ele>226.047119</ele>
        <time>2011-12-08T15:47:26Z</time>
      </trkpt>
      <trkpt lat="46.98279" lon="5.53635">
        <ele>225.566528</ele>
        <time>2011-12-08T15:47:40Z</time>
      </trkpt>
      <trkpt lat="46.98277" lon="5.53629">
        <ele>225.566528</ele>
        <time>2011-12-08T15:47:43Z</time>
      </trkpt>
      <trkpt lat="46.98281" lon="5.5361">
        <ele>225.566528</ele>
        <time>2011-12-08T15:47:55Z</time>
      </trkpt>
      <trkpt lat="46.98284" lon="5.53577">
        <ele>224.605225</ele>
        <time>2011-12-08T15:48:17Z</time>
      </trkpt>
      <trkpt lat="46.98285" lon="5.5357">
        <ele>224.605225</ele>
        <time>2011-12-08T15:48:22Z</time>
      </trkpt>
      <trkpt lat="46.98289" lon="5.53542">
        <ele>224.124512</ele>
        <time>2011-12-08T15:48:38Z</time>
      </trkpt>
      <trkpt lat="46.98298" lon="5.53518">
        <ele>223.643799</ele>
        <time>2011-12-08T15:48:57Z</time>
      </trkpt>
      <trkpt lat="46.98297" lon="5.535">
        <ele>223.643799</ele>
        <time>2011-12-08T15:49:15Z</time>
      </trkpt>
      <trkpt lat="46.98304" lon="5.53467">
        <ele>222.682495</ele>
        <time>2011-12-08T15:49:35Z</time>
      </trkpt>
      <trkpt lat="46.98311" lon="5.53439">
        <ele>222.682495</ele>
        <time>2011-12-08T15:49:53Z</time>
      </trkpt>
      <trkpt lat="46.98312" lon="5.53417">
        <ele>222.682495</ele>
        <time>2011-12-08T15:50:09Z</time>
      </trkpt>
      <trkpt lat="46.98315" lon="5.53388">
        <ele>222.201782</ele>
        <time>2011-12-08T15:50:26Z</time>
      </trkpt>
      <trkpt lat="46.98321" lon="5.53363">
        <ele>221.721191</ele>
        <time>2011-12-08T15:50:47Z</time>
      </trkpt>
      <trkpt lat="46.98325" lon="5.53336">
        <ele>221.240601</ele>
        <time>2011-12-08T15:51:03Z</time>
      </trkpt>
      <trkpt lat="46.98329" lon="5.53312">
        <ele>220.759888</ele>
        <time>2011-12-08T15:51:15Z</time>
      </trkpt>
      <trkpt lat="46.98331" lon="5.53285">
        <ele>218.83728</ele>
        <time>2011-12-08T15:51:31Z</time>
      </trkpt>
      <trkpt lat="46.98335" lon="5.53265">
        <ele>217.875977</ele>
        <time>2011-12-08T15:51:45Z</time>
      </trkpt>
      <trkpt lat="46.9834" lon="5.53241">
        <ele>216.914673</ele>
        <time>2011-12-08T15:52:02Z</time>
      </trkpt>
      <trkpt lat="46.98346" lon="5.53217">
        <ele>215.953247</ele>
        <time>2011-12-08T15:52:18Z</time>
      </trkpt>
      <trkpt lat="46.98354" lon="5.5319">
        <ele>214.51123</ele>
        <time>2011-12-08T15:52:36Z</time>
      </trkpt>
      <trkpt lat="46.98356" lon="5.53172">
        <ele>212.588623</ele>
        <time>2011-12-08T15:52:54Z</time>
      </trkpt>
      <trkpt lat="46.98364" lon="5.53154">
        <ele>211.627441</ele>
        <time>2011-12-08T15:53:19Z</time>
      </trkpt>
      <trkpt lat="46.9837" lon="5.5313">
        <ele>211.627441</ele>
        <time>2011-12-08T15:53:41Z</time>
      </trkpt>
      <trkpt lat="46.98368" lon="5.53121">
        <ele>214.991943</ele>
        <time>2011-12-08T15:54:09Z</time>
      </trkpt>
      <trkpt lat="46.98383" lon="5.53123">
        <ele>216.43396</ele>
        <time>2011-12-08T15:54:25Z</time>
      </trkpt>
      <trkpt lat="46.98389" lon="5.53124">
        <ele>216.43396</ele>
        <time>2011-12-08T15:54:49Z</time>
      </trkpt>
      <trkpt lat="46.98389" lon="5.53129">
        <ele>216.914673</ele>
        <time>2011-12-08T15:55:26Z</time>
      </trkpt>
      <trkpt lat="46.98376" lon="5.5313">
        <ele>214.991943</ele>
        <time>2011-12-08T15:57:33Z</time>
      </trkpt>
      <trkpt lat="46.98374" lon="5.53129">
        <ele>214.51123</ele>
        <time>2011-12-08T15:57:36Z</time>
      </trkpt>
      <trkpt lat="46.98369" lon="5.53111">
        <ele>214.991943</ele>
        <time>2011-12-08T15:57:52Z</time>
      </trkpt>
      <trkpt lat="46.9837" lon="5.5308">
        <ele>216.914673</ele>
        <time>2011-12-08T15:58:13Z</time>
      </trkpt>
      <trkpt lat="46.98373" lon="5.53054">
        <ele>217.875977</ele>
        <time>2011-12-08T15:58:32Z</time>
      </trkpt>
      <trkpt lat="46.98381" lon="5.5302">
        <ele>218.356567</ele>
        <time>2011-12-08T15:58:59Z</time>
      </trkpt>
      <trkpt lat="46.98382" lon="5.53012">
        <ele>217.875977</ele>
        <time>2011-12-08T15:59:05Z</time>
      </trkpt>
      <trkpt lat="46.98386" lon="5.52984">
        <ele>215.953247</ele>
        <time>2011-12-08T15:59:21Z</time>
      </trkpt>
      <trkpt lat="46.98386" lon="5.5298">
        <ele>215.953247</ele>
        <time>2011-12-08T15:59:23Z</time>
      </trkpt>
      <trkpt lat="46.9839" lon="5.52957">
        <ele>215.472656</ele>
        <time>2011-12-08T15:59:39Z</time>
      </trkpt>
      <trkpt lat="46.98393" lon="5.52936">
        <ele>214.991943</ele>
        <time>2011-12-08T15:59:54Z</time>
      </trkpt>
      <trkpt lat="46.98397" lon="5.52912">
        <ele>213.550049</ele>
        <time>2011-12-08T16:00:10Z</time>
      </trkpt>
      <trkpt lat="46.984" lon="5.52891">
        <ele>212.108032</ele>
        <time>2011-12-08T16:00:24Z</time>
      </trkpt>
      <trkpt lat="46.98403" lon="5.52872">
        <ele>211.627441</ele>
        <time>2011-12-08T16:00:38Z</time>
      </trkpt>
      <trkpt lat="46.98407" lon="5.52842">
        <ele>210.185425</ele>
        <time>2011-12-08T16:00:57Z</time>
      </trkpt>
      <trkpt lat="46.98409" lon="5.52837">
        <ele>209.704834</ele>
        <time>2011-12-08T16:01:00Z</time>
      </trkpt>
      <trkpt lat="46.98409" lon="5.52831">
        <ele>209.704834</ele>
        <time>2011-12-08T16:01:03Z</time>
      </trkpt>
      <trkpt lat="46.9841" lon="5.5282">
        <ele>209.224121</ele>
        <time>2011-12-08T16:01:13Z</time>
      </trkpt>
      <trkpt lat="46.98412" lon="5.52797">
        <ele>210.666016</ele>
        <time>2011-12-08T16:01:26Z</time>
      </trkpt>
      <trkpt lat="46.9842" lon="5.52771">
        <ele>212.588623</ele>
        <time>2011-12-08T16:01:45Z</time>
      </trkpt>
      <trkpt lat="46.98425" lon="5.52745">
        <ele>212.588623</ele>
        <time>2011-12-08T16:01:59Z</time>
      </trkpt>
      <trkpt lat="46.98426" lon="5.52743">
        <ele>212.588623</ele>
        <time>2011-12-08T16:02:02Z</time>
      </trkpt>
      <trkpt lat="46.98427" lon="5.52722">
        <ele>212.588623</ele>
        <time>2011-12-08T16:02:15Z</time>
      </trkpt>
      <trkpt lat="46.98429" lon="5.52708">
        <ele>214.03064</ele>
        <time>2011-12-08T16:02:31Z</time>
      </trkpt>
      <trkpt lat="46.98434" lon="5.52682">
        <ele>215.472656</ele>
        <time>2011-12-08T16:02:46Z</time>
      </trkpt>
      <trkpt lat="46.98439" lon="5.52654">
        <ele>215.953247</ele>
        <time>2011-12-08T16:03:03Z</time>
      </trkpt>
      <trkpt lat="46.98439" lon="5.52645">
        <ele>215.953247</ele>
        <time>2011-12-08T16:03:07Z</time>
      </trkpt>
      <trkpt lat="46.98445" lon="5.5262">
        <ele>215.953247</ele>
        <time>2011-12-08T16:03:22Z</time>
      </trkpt>
      <trkpt lat="46.98452" lon="5.52591">
        <ele>215.953247</ele>
        <time>2011-12-08T16:03:41Z</time>
      </trkpt>
      <trkpt lat="46.98453" lon="5.52569">
        <ele>216.43396</ele>
        <time>2011-12-08T16:03:59Z</time>
      </trkpt>
      <trkpt lat="46.98456" lon="5.52544">
        <ele>217.395386</ele>
        <time>2011-12-08T16:04:14Z</time>
      </trkpt>
      <trkpt lat="46.98459" lon="5.5254">
        <ele>217.395386</ele>
        <time>2011-12-08T16:04:17Z</time>
      </trkpt>
      <trkpt lat="46.98465" lon="5.52518">
        <ele>218.356567</ele>
        <time>2011-12-08T16:04:33Z</time>
      </trkpt>
      <trkpt lat="46.98467" lon="5.52503">
        <ele>218.356567</ele>
        <time>2011-12-08T16:04:44Z</time>
      </trkpt>
      <trkpt lat="46.98474" lon="5.52474">
        <ele>216.914673</ele>
        <time>2011-12-08T16:05:05Z</time>
      </trkpt>
      <trkpt lat="46.98477" lon="5.52446">
        <ele>215.472656</ele>
        <time>2011-12-08T16:05:25Z</time>
      </trkpt>
      <trkpt lat="46.98482" lon="5.52432">
        <ele>214.51123</ele>
        <time>2011-12-08T16:05:36Z</time>
      </trkpt>
      <trkpt lat="46.98484" lon="5.52428">
        <ele>214.51123</ele>
        <time>2011-12-08T16:05:38Z</time>
      </trkpt>
      <trkpt lat="46.98485" lon="5.52408">
        <ele>213.069336</ele>
        <time>2011-12-08T16:05:54Z</time>
      </trkpt>
      <trkpt lat="46.98488" lon="5.52382">
        <ele>212.108032</ele>
        <time>2011-12-08T16:06:10Z</time>
      </trkpt>
      <trkpt lat="46.98492" lon="5.52361">
        <ele>210.666016</ele>
        <time>2011-12-08T16:06:23Z</time>
      </trkpt>
      <trkpt lat="46.98493" lon="5.52343">
        <ele>210.185425</ele>
        <time>2011-12-08T16:06:36Z</time>
      </trkpt>
      <trkpt lat="46.98494" lon="5.52335">
        <ele>210.666016</ele>
        <time>2011-12-08T16:06:41Z</time>
      </trkpt>
      <trkpt lat="46.98505" lon="5.52311">
        <ele>210.185425</ele>
        <time>2011-12-08T16:06:59Z</time>
      </trkpt>
      <trkpt lat="46.98502" lon="5.52295">
        <ele>210.185425</ele>
        <time>2011-12-08T16:07:09Z</time>
      </trkpt>
      <trkpt lat="46.98506" lon="5.52279">
        <ele>210.185425</ele>
        <time>2011-12-08T16:07:22Z</time>
      </trkpt>
      <trkpt lat="46.9851" lon="5.52269">
        <ele>210.185425</ele>
        <time>2011-12-08T16:07:29Z</time>
      </trkpt>
      <trkpt lat="46.98515" lon="5.52244">
        <ele>210.666016</ele>
        <time>2011-12-08T16:07:42Z</time>
      </trkpt>
      <trkpt lat="46.98519" lon="5.5223">
        <ele>210.185425</ele>
        <time>2011-12-08T16:07:51Z</time>
      </trkpt>
      <trkpt lat="46.98524" lon="5.52207">
        <ele>210.666016</ele>
        <time>2011-12-08T16:08:07Z</time>
      </trkpt>
      <trkpt lat="46.98525" lon="5.52191">
        <ele>210.666016</ele>
        <time>2011-12-08T16:08:18Z</time>
      </trkpt>
      <trkpt lat="46.9854" lon="5.52178">
        <ele>210.185425</ele>
        <time>2011-12-08T16:08:34Z</time>
      </trkpt>
      <trkpt lat="46.98543" lon="5.52168">
        <ele>211.627441</ele>
        <time>2011-12-08T16:08:50Z</time>
      </trkpt>
      <trkpt lat="46.98541" lon="5.52154">
        <ele>214.991943</ele>
        <time>2011-12-08T16:09:07Z</time>
      </trkpt>
      <trkpt lat="46.98537" lon="5.52151">
        <ele>214.991943</ele>
        <time>2011-12-08T16:09:15Z</time>
      </trkpt>
      <trkpt lat="46.9854" lon="5.52123">
        <ele>214.51123</ele>
        <time>2011-12-08T16:09:33Z</time>
      </trkpt>
      <trkpt lat="46.98547" lon="5.52111">
        <ele>214.03064</ele>
        <time>2011-12-08T16:09:48Z</time>
      </trkpt>
      <trkpt lat="46.98545" lon="5.521">
        <ele>213.550049</ele>
        <time>2011-12-08T16:10:03Z</time>
      </trkpt>
      <trkpt lat="46.98541" lon="5.5209">
        <ele>213.069336</ele>
        <time>2011-12-08T16:10:22Z</time>
      </trkpt>
      <trkpt lat="46.98541" lon="5.52076">
        <ele>212.108032</ele>
        <time>2011-12-08T16:10:36Z</time>
      </trkpt>
      <trkpt lat="46.98542" lon="5.52067">
        <ele>210.185425</ele>
        <time>2011-12-08T16:10:47Z</time>
      </trkpt>
      <trkpt lat="46.98549" lon="5.52054">
        <ele>210.185425</ele>
        <time>2011-12-08T16:11:01Z</time>
      </trkpt>
      <trkpt lat="46.98553" lon="5.52036">
        <ele>210.666016</ele>
        <time>2011-12-08T16:11:17Z</time>
      </trkpt>
      <trkpt lat="46.98564" lon="5.52004">
        <ele>212.108032</ele>
        <time>2011-12-08T16:11:36Z</time>
      </trkpt>
      <trkpt lat="46.98567" lon="5.51997">
        <ele>212.588623</ele>
        <time>2011-12-08T16:11:40Z</time>
      </trkpt>
      <trkpt lat="46.98571" lon="5.51982">
        <ele>215.472656</ele>
        <time>2011-12-08T16:11:52Z</time>
      </trkpt>
      <trkpt lat="46.98579" lon="5.51974">
        <ele>218.356567</ele>
        <time>2011-12-08T16:12:07Z</time>
      </trkpt>
      <trkpt lat="46.98587" lon="5.51956">
        <ele>221.240601</ele>
        <time>2011-12-08T16:12:24Z</time>
      </trkpt>
      <trkpt lat="46.98595" lon="5.51932">
        <ele>224.124512</ele>
        <time>2011-12-08T16:12:46Z</time>
      </trkpt>
      <trkpt lat="46.98608" lon="5.51906">
        <ele>225.566528</ele>
        <time>2011-12-08T16:13:09Z</time>
      </trkpt>
      <trkpt lat="46.9861" lon="5.51895">
        <ele>226.047119</ele>
        <time>2011-12-08T16:13:18Z</time>
      </trkpt>
      <trkpt lat="46.98619" lon="5.51876">
        <ele>226.047119</ele>
        <time>2011-12-08T16:13:33Z</time>
      </trkpt>
      <trkpt lat="46.98628" lon="5.51858">
        <ele>226.047119</ele>
        <time>2011-12-08T16:13:44Z</time>
      </trkpt>
      <trkpt lat="46.98636" lon="5.51841">
        <ele>226.047119</ele>
        <time>2011-12-08T16:13:58Z</time>
      </trkpt>
      <trkpt lat="46.98648" lon="5.51818">
        <ele>226.047119</ele>
        <time>2011-12-08T16:14:18Z</time>
      </trkpt>
      <trkpt lat="46.98652" lon="5.51811">
        <ele>226.047119</ele>
        <time>2011-12-08T16:14:23Z</time>
      </trkpt>
      <trkpt lat="46.98656" lon="5.518">
        <ele>226.047119</ele>
        <time>2011-12-08T16:14:32Z</time>
      </trkpt>
      <trkpt lat="46.98662" lon="5.51787">
        <ele>226.047119</ele>
        <time>2011-12-08T16:14:45Z</time>
      </trkpt>
      <trkpt lat="46.98677" lon="5.5177">
        <ele>225.085938</ele>
        <time>2011-12-08T16:15:05Z</time>
      </trkpt>
      <trkpt lat="46.98689" lon="5.5175">
        <ele>224.124512</ele>
        <time>2011-12-08T16:15:22Z</time>
      </trkpt>
      <trkpt lat="46.98696" lon="5.51728">
        <ele>223.163208</ele>
        <time>2011-12-08T16:15:40Z</time>
      </trkpt>
      <trkpt lat="46.98703" lon="5.51705">
        <ele>221.240601</ele>
        <time>2011-12-08T16:15:58Z</time>
      </trkpt>
      <trkpt lat="46.98713" lon="5.51668">
        <ele>218.83728</ele>
        <time>2011-12-08T16:16:21Z</time>
      </trkpt>
      <trkpt lat="46.98722" lon="5.51644">
        <ele>217.875977</ele>
        <time>2011-12-08T16:16:41Z</time>
      </trkpt>
      <trkpt lat="46.98724" lon="5.51637">
        <ele>220.279175</ele>
        <time>2011-12-08T16:17:18Z</time>
      </trkpt>
      <trkpt lat="46.98716" lon="5.5162">
        <ele>221.240601</ele>
        <time>2011-12-08T16:19:15Z</time>
      </trkpt>
      <trkpt lat="46.98714" lon="5.51614">
        <ele>221.240601</ele>
        <time>2011-12-08T16:19:19Z</time>
      </trkpt>
      <trkpt lat="46.98701" lon="5.51589">
        <ele>220.279175</ele>
        <time>2011-12-08T16:19:39Z</time>
      </trkpt>
      <trkpt lat="46.98694" lon="5.51571">
        <ele>216.914673</ele>
        <time>2011-12-08T16:19:56Z</time>
      </trkpt>
      <trkpt lat="46.98686" lon="5.51555">
        <ele>215.953247</ele>
        <time>2011-12-08T16:20:10Z</time>
      </trkpt>
      <trkpt lat="46.98682" lon="5.51548">
        <ele>216.43396</ele>
        <time>2011-12-08T16:20:29Z</time>
      </trkpt>
      <trkpt lat="46.98671" lon="5.51535">
        <ele>217.395386</ele>
        <time>2011-12-08T16:20:49Z</time>
      </trkpt>
      <trkpt lat="46.98664" lon="5.5153">
        <ele>220.759888</ele>
        <time>2011-12-08T16:21:02Z</time>
      </trkpt>
      <trkpt lat="46.98651" lon="5.51511">
        <ele>221.721191</ele>
        <time>2011-12-08T16:21:18Z</time>
      </trkpt>
      <trkpt lat="46.98642" lon="5.51499">
        <ele>223.163208</ele>
        <time>2011-12-08T16:21:33Z</time>
      </trkpt>
      <trkpt lat="46.98637" lon="5.51494">
        <ele>223.163208</ele>
        <time>2011-12-08T16:21:38Z</time>
      </trkpt>
      <trkpt lat="46.98628" lon="5.51473">
        <ele>223.163208</ele>
        <time>2011-12-08T16:21:55Z</time>
      </trkpt>
      <trkpt lat="46.98624" lon="5.51468">
        <ele>223.643799</ele>
        <time>2011-12-08T16:21:59Z</time>
      </trkpt>
      <trkpt lat="46.98621" lon="5.51464">
        <ele>223.163208</ele>
        <time>2011-12-08T16:22:02Z</time>
      </trkpt>
      <trkpt lat="46.9861" lon="5.51448">
        <ele>222.201782</ele>
        <time>2011-12-08T16:22:16Z</time>
      </trkpt>
      <trkpt lat="46.98608" lon="5.51445">
        <ele>222.682495</ele>
        <time>2011-12-08T16:22:17Z</time>
      </trkpt>
      <trkpt lat="46.98603" lon="5.51423">
        <ele>222.682495</ele>
        <time>2011-12-08T16:22:35Z</time>
      </trkpt>
      <trkpt lat="46.98608" lon="5.51418">
        <ele>223.643799</ele>
        <time>2011-12-08T16:22:46Z</time>
      </trkpt>
      <trkpt lat="46.98613" lon="5.51413">
        <ele>223.643799</ele>
        <time>2011-12-08T16:22:50Z</time>
      </trkpt>
      <trkpt lat="46.98628" lon="5.51413">
        <ele>223.163208</ele>
        <time>2011-12-08T16:23:03Z</time>
      </trkpt>
      <trkpt lat="46.98654" lon="5.51406">
        <ele>222.682495</ele>
        <time>2011-12-08T16:23:21Z</time>
      </trkpt>
      <trkpt lat="46.98662" lon="5.51402">
        <ele>223.163208</ele>
        <time>2011-12-08T16:23:33Z</time>
      </trkpt>
      <trkpt lat="46.98673" lon="5.51393">
        <ele>223.163208</ele>
        <time>2011-12-08T16:23:45Z</time>
      </trkpt>
      <trkpt lat="46.98677" lon="5.5139">
        <ele>223.163208</ele>
        <time>2011-12-08T16:23:50Z</time>
      </trkpt>
      <trkpt lat="46.98681" lon="5.51386">
        <ele>223.163208</ele>
        <time>2011-12-08T16:23:54Z</time>
      </trkpt>
      <trkpt lat="46.98688" lon="5.51381">
        <ele>219.317993</ele>
        <time>2011-12-08T16:24:04Z</time>
      </trkpt>
      <trkpt lat="46.98689" lon="5.5138">
        <ele>222.682495</ele>
        <time>2011-12-08T16:24:06Z</time>
      </trkpt>
      <trkpt lat="46.98696" lon="5.51373">
        <ele>222.201782</ele>
        <time>2011-12-08T16:24:18Z</time>
      </trkpt>
      <trkpt lat="46.98708" lon="5.51361">
        <ele>222.201782</ele>
        <time>2011-12-08T16:24:28Z</time>
      </trkpt>
      <trkpt lat="46.98722" lon="5.51352">
        <ele>220.759888</ele>
        <time>2011-12-08T16:24:41Z</time>
      </trkpt>
      <trkpt lat="46.98743" lon="5.51342">
        <ele>217.875977</ele>
        <time>2011-12-08T16:25:01Z</time>
      </trkpt>
      <trkpt lat="46.98762" lon="5.51338">
        <ele>218.83728</ele>
        <time>2011-12-08T16:25:21Z</time>
      </trkpt>
      <trkpt lat="46.98782" lon="5.51328">
        <ele>219.798584</ele>
        <time>2011-12-08T16:25:43Z</time>
      </trkpt>
      <trkpt lat="46.98803" lon="5.51326">
        <ele>220.759888</ele>
        <time>2011-12-08T16:26:01Z</time>
      </trkpt>
      <trkpt lat="46.98824" lon="5.51307">
        <ele>221.240601</ele>
        <time>2011-12-08T16:26:23Z</time>
      </trkpt>
      <trkpt lat="46.98842" lon="5.51305">
        <ele>221.721191</ele>
        <time>2011-12-08T16:26:43Z</time>
      </trkpt>
      <trkpt lat="46.98851" lon="5.51314">
        <ele>221.240601</ele>
        <time>2011-12-08T16:26:48Z</time>
      </trkpt>
      <trkpt lat="46.98861" lon="5.51339">
        <ele>220.759888</ele>
        <time>2011-12-08T16:27:00Z</time>
      </trkpt>
      <trkpt lat="46.98862" lon="5.51351">
        <ele>220.279175</ele>
        <time>2011-12-08T16:27:06Z</time>
      </trkpt>
      <trkpt lat="46.98866" lon="5.51369">
        <ele>219.798584</ele>
        <time>2011-12-08T16:27:17Z</time>
      </trkpt>
      <trkpt lat="46.98867" lon="5.51379">
        <ele>218.83728</ele>
        <time>2011-12-08T16:27:23Z</time>
      </trkpt>
      <trkpt lat="46.98872" lon="5.51392">
        <ele>218.83728</ele>
        <time>2011-12-08T16:27:30Z</time>
      </trkpt>
      <trkpt lat="46.98875" lon="5.51395">
        <ele>218.356567</ele>
        <time>2011-12-08T16:27:32Z</time>
      </trkpt>
      <trkpt lat="46.98881" lon="5.51413">
        <ele>218.356567</ele>
        <time>2011-12-08T16:27:42Z</time>
      </trkpt>
      <trkpt lat="46.98888" lon="5.5143">
        <ele>218.83728</ele>
        <time>2011-12-08T16:27:52Z</time>
      </trkpt>
      <trkpt lat="46.98889" lon="5.51433">
        <ele>219.317993</ele>
        <time>2011-12-08T16:27:54Z</time>
      </trkpt>
      <trkpt lat="46.9889" lon="5.51441">
        <ele>219.798584</ele>
        <time>2011-12-08T16:27:59Z</time>
      </trkpt>
      <trkpt lat="46.98896" lon="5.51471">
        <ele>221.240601</ele>
        <time>2011-12-08T16:28:15Z</time>
      </trkpt>
      <trkpt lat="46.98897" lon="5.51478">
        <ele>221.721191</ele>
        <time>2011-12-08T16:28:20Z</time>
      </trkpt>
      <trkpt lat="46.98897" lon="5.51483">
        <ele>221.721191</ele>
        <time>2011-12-08T16:28:23Z</time>
      </trkpt>
      <trkpt lat="46.989" lon="5.51489">
        <ele>222.201782</ele>
        <time>2011-12-08T16:28:26Z</time>
      </trkpt>
      <trkpt lat="46.98901" lon="5.515">
        <ele>222.682495</ele>
        <time>2011-12-08T16:28:33Z</time>
      </trkpt>
      <trkpt lat="46.98912" lon="5.51527">
        <ele>223.643799</ele>
        <time>2011-12-08T16:28:49Z</time>
      </trkpt>
      <trkpt lat="46.9892" lon="5.51559">
        <ele>223.643799</ele>
        <time>2011-12-08T16:29:07Z</time>
      </trkpt>
      <trkpt lat="46.9892" lon="5.5156">
        <ele>223.643799</ele>
        <time>2011-12-08T16:29:08Z</time>
      </trkpt>
      <trkpt lat="46.9892" lon="5.51569">
        <ele>223.643799</ele>
        <time>2011-12-08T16:29:12Z</time>
      </trkpt>
      <trkpt lat="46.98923" lon="5.5159">
        <ele>223.643799</ele>
        <time>2011-12-08T16:29:22Z</time>
      </trkpt>
      <trkpt lat="46.98924" lon="5.51614">
        <ele>223.643799</ele>
        <time>2011-12-08T16:29:36Z</time>
      </trkpt>
      <trkpt lat="46.98924" lon="5.51619">
        <ele>223.163208</ele>
        <time>2011-12-08T16:29:38Z</time>
      </trkpt>
      <trkpt lat="46.98935" lon="5.51647">
        <ele>223.163208</ele>
        <time>2011-12-08T16:29:52Z</time>
      </trkpt>
      <trkpt lat="46.98936" lon="5.51648">
        <ele>223.163208</ele>
        <time>2011-12-08T16:29:53Z</time>
      </trkpt>
      <trkpt lat="46.98938" lon="5.51662">
        <ele>222.201782</ele>
        <time>2011-12-08T16:30:00Z</time>
      </trkpt>
      <trkpt lat="46.9894" lon="5.51671">
        <ele>222.682495</ele>
        <time>2011-12-08T16:30:04Z</time>
      </trkpt>
      <trkpt lat="46.9894" lon="5.51677">
        <ele>222.201782</ele>
        <time>2011-12-08T16:30:07Z</time>
      </trkpt>
      <trkpt lat="46.98943" lon="5.51682">
        <ele>222.201782</ele>
        <time>2011-12-08T16:30:11Z</time>
      </trkpt>
      <trkpt lat="46.98945" lon="5.51691">
        <ele>222.201782</ele>
        <time>2011-12-08T16:30:16Z</time>
      </trkpt>
      <trkpt lat="46.9895" lon="5.51695">
        <ele>221.721191</ele>
        <time>2011-12-08T16:30:24Z</time>
      </trkpt>
      <trkpt lat="46.98957" lon="5.51692">
        <ele>221.240601</ele>
        <time>2011-12-08T16:30:34Z</time>
      </trkpt>
      <trkpt lat="46.98976" lon="5.51692">
        <ele>221.240601</ele>
        <time>2011-12-08T16:30:55Z</time>
      </trkpt>
      <trkpt lat="46.98994" lon="5.51694">
        <ele>221.721191</ele>
        <time>2011-12-08T16:31:07Z</time>
      </trkpt>
      <trkpt lat="46.99013" lon="5.51698">
        <ele>221.721191</ele>
        <time>2011-12-08T16:31:26Z</time>
      </trkpt>
      <trkpt lat="46.99025" lon="5.51704">
        <ele>220.759888</ele>
        <time>2011-12-08T16:31:42Z</time>
      </trkpt>
      <trkpt lat="46.99047" lon="5.51704">
        <ele>220.759888</ele>
        <time>2011-12-08T16:31:59Z</time>
      </trkpt>
      <trkpt lat="46.99069" lon="5.51706">
        <ele>221.240601</ele>
        <time>2011-12-08T16:32:15Z</time>
      </trkpt>
      <trkpt lat="46.99094" lon="5.5171">
        <ele>221.240601</ele>
        <time>2011-12-08T16:32:31Z</time>
      </trkpt>
      <trkpt lat="46.99124" lon="5.51718">
        <ele>221.721191</ele>
        <time>2011-12-08T16:32:48Z</time>
      </trkpt>
      <trkpt lat="46.9915" lon="5.51724">
        <ele>221.721191</ele>
        <time>2011-12-08T16:33:09Z</time>
      </trkpt>
      <trkpt lat="46.99175" lon="5.5173">
        <ele>222.201782</ele>
        <time>2011-12-08T16:33:27Z</time>
      </trkpt>
      <trkpt lat="46.99205" lon="5.51738">
        <ele>222.201782</ele>
        <time>2011-12-08T16:33:49Z</time>
      </trkpt>
      <trkpt lat="46.99231" lon="5.51743">
        <ele>222.201782</ele>
        <time>2011-12-08T16:34:05Z</time>
      </trkpt>
      <trkpt lat="46.99253" lon="5.51749">
        <ele>222.201782</ele>
        <time>2011-12-08T16:34:24Z</time>
      </trkpt>
      <trkpt lat="46.9927" lon="5.51754">
        <ele>222.201782</ele>
        <time>2011-12-08T16:34:38Z</time>
      </trkpt>
      <trkpt lat="46.99288" lon="5.51761">
        <ele>222.682495</ele>
        <time>2011-12-08T16:34:52Z</time>
      </trkpt>
      <trkpt lat="46.99303" lon="5.51765">
        <ele>223.163208</ele>
        <time>2011-12-08T16:35:04Z</time>
      </trkpt>
      <trkpt lat="46.99317" lon="5.51771">
        <ele>223.163208</ele>
        <time>2011-12-08T16:35:17Z</time>
      </trkpt>
      <trkpt lat="46.9932" lon="5.51772">
        <ele>223.643799</ele>
        <time>2011-12-08T16:35:20Z</time>
      </trkpt>
      <trkpt lat="46.99341" lon="5.51771">
        <ele>223.643799</ele>
        <time>2011-12-08T16:35:35Z</time>
      </trkpt>
      <trkpt lat="46.9936" lon="5.51767">
        <ele>224.124512</ele>
        <time>2011-12-08T16:35:50Z</time>
      </trkpt>
      <trkpt lat="46.99383" lon="5.51763">
        <ele>223.643799</ele>
        <time>2011-12-08T16:36:07Z</time>
      </trkpt>
      <trkpt lat="46.99408" lon="5.51754">
        <ele>221.721191</ele>
        <time>2011-12-08T16:36:28Z</time>
      </trkpt>
      <trkpt lat="46.99435" lon="5.51746">
        <ele>220.759888</ele>
        <time>2011-12-08T16:36:47Z</time>
      </trkpt>
      <trkpt lat="46.99463" lon="5.51741">
        <ele>219.798584</ele>
        <time>2011-12-08T16:37:07Z</time>
      </trkpt>
      <trkpt lat="46.99484" lon="5.51741">
        <ele>219.798584</ele>
        <time>2011-12-08T16:37:25Z</time>
      </trkpt>
      <trkpt lat="46.99503" lon="5.51744">
        <ele>219.317993</ele>
        <time>2011-12-08T16:37:38Z</time>
      </trkpt>
      <trkpt lat="46.99527" lon="5.51752">
        <ele>218.83728</ele>
        <time>2011-12-08T16:37:56Z</time>
      </trkpt>
      <trkpt lat="46.99552" lon="5.51758">
        <ele>218.356567</ele>
        <time>2011-12-08T16:38:17Z</time>
      </trkpt>
      <trkpt lat="46.9958" lon="5.51762">
        <ele>217.875977</ele>
        <time>2011-12-08T16:38:39Z</time>
      </trkpt>
      <trkpt lat="46.99597" lon="5.51764">
        <ele>217.395386</ele>
        <time>2011-12-08T16:38:52Z</time>
      </trkpt>
      <trkpt lat="46.99613" lon="5.51765">
        <ele>216.914673</ele>
        <time>2011-12-08T16:39:03Z</time>
      </trkpt>
      <trkpt lat="46.99641" lon="5.51768">
        <ele>216.914673</ele>
        <time>2011-12-08T16:39:20Z</time>
      </trkpt>
      <trkpt lat="46.99655" lon="5.51767">
        <ele>216.914673</ele>
        <time>2011-12-08T16:39:28Z</time>
      </trkpt>
      <trkpt lat="46.99659" lon="5.51768">
        <ele>216.914673</ele>
        <time>2011-12-08T16:39:31Z</time>
      </trkpt>
      <trkpt lat="46.99661" lon="5.51766">
        <ele>216.43396</ele>
        <time>2011-12-08T16:39:34Z</time>
      </trkpt>
      <trkpt lat="46.99671" lon="5.51765">
        <ele>216.914673</ele>
        <time>2011-12-08T16:39:44Z</time>
      </trkpt>
      <trkpt lat="46.99688" lon="5.51756">
        <ele>215.953247</ele>
        <time>2011-12-08T16:39:59Z</time>
      </trkpt>
      <trkpt lat="46.99689" lon="5.51756">
        <ele>216.43396</ele>
        <time>2011-12-08T16:40:00Z</time>
      </trkpt>
      <trkpt lat="46.99711" lon="5.5175">
        <ele>216.914673</ele>
        <time>2011-12-08T16:40:16Z</time>
      </trkpt>
      <trkpt lat="46.99715" lon="5.51749">
        <ele>216.914673</ele>
        <time>2011-12-08T16:40:18Z</time>
      </trkpt>
      <trkpt lat="46.99731" lon="5.51744">
        <ele>217.395386</ele>
        <time>2011-12-08T16:40:31Z</time>
      </trkpt>
      <trkpt lat="46.99751" lon="5.51745">
        <ele>218.356567</ele>
        <time>2011-12-08T16:40:44Z</time>
      </trkpt>
      <trkpt lat="46.99773" lon="5.51748">
        <ele>219.798584</ele>
        <time>2011-12-08T16:40:59Z</time>
      </trkpt>
      <trkpt lat="46.99791" lon="5.51751">
        <ele>220.759888</ele>
        <time>2011-12-08T16:41:12Z</time>
      </trkpt>
      <trkpt lat="46.99808" lon="5.51748">
        <ele>221.721191</ele>
        <time>2011-12-08T16:41:25Z</time>
      </trkpt>
      <trkpt lat="46.99825" lon="5.51746">
        <ele>222.682495</ele>
        <time>2011-12-08T16:41:40Z</time>
      </trkpt>
      <trkpt lat="46.99854" lon="5.51741">
        <ele>223.643799</ele>
        <time>2011-12-08T16:42:01Z</time>
      </trkpt>
      <trkpt lat="46.99876" lon="5.51734">
        <ele>224.124512</ele>
        <time>2011-12-08T16:42:18Z</time>
      </trkpt>
      <trkpt lat="46.99898" lon="5.5172">
        <ele>224.605225</ele>
        <time>2011-12-08T16:42:35Z</time>
      </trkpt>
      <trkpt lat="46.99911" lon="5.51712">
        <ele>224.124512</ele>
        <time>2011-12-08T16:42:51Z</time>
      </trkpt>
      <trkpt lat="46.99912" lon="5.5171">
        <ele>223.643799</ele>
        <time>2011-12-08T16:43:18Z</time>
      </trkpt>
      <trkpt lat="46.99915" lon="5.51711">
        <ele>223.163208</ele>
        <time>2011-12-08T16:43:57Z</time>
      </trkpt>
      <trkpt lat="46.99916" lon="5.51707">
        <ele>223.163208</ele>
        <time>2011-12-08T16:44:12Z</time>
      </trkpt>
      <trkpt lat="46.99915" lon="5.51709">
        <ele>222.682495</ele>
        <time>2011-12-08T16:44:33Z</time>
      </trkpt>
      <trkpt lat="46.99917" lon="5.51712">
        <ele>222.682495</ele>
        <time>2011-12-08T16:45:05Z</time>
      </trkpt>
      <trkpt lat="46.99916" lon="5.51712">
        <ele>222.682495</ele>
        <time>2011-12-08T16:45:40Z</time>
      </trkpt>
      <trkpt lat="46.99924" lon="5.51708">
        <ele>221.721191</ele>
        <time>2011-12-08T16:45:50Z</time>
      </trkpt>
      <trkpt lat="46.9995" lon="5.5172">
        <ele>220.759888</ele>
        <time>2011-12-08T16:46:07Z</time>
      </trkpt>
      <trkpt lat="46.99975" lon="5.51734">
        <ele>219.317993</ele>
        <time>2011-12-08T16:46:29Z</time>
      </trkpt>
      <trkpt lat="46.99985" lon="5.51739">
        <ele>219.317993</ele>
        <time>2011-12-08T16:46:39Z</time>
      </trkpt>
      <trkpt lat="46.99989" lon="5.51744">
        <ele>218.356567</ele>
        <time>2011-12-08T16:46:43Z</time>
      </trkpt>
      <trkpt lat="47.00006" lon="5.51748">
        <ele>217.395386</ele>
        <time>2011-12-08T16:46:58Z</time>
      </trkpt>
      <trkpt lat="47.00034" lon="5.5176">
        <ele>216.914673</ele>
        <time>2011-12-08T16:47:20Z</time>
      </trkpt>
      <trkpt lat="47.00054" lon="5.51769">
        <ele>215.472656</ele>
        <time>2011-12-08T16:47:36Z</time>
      </trkpt>
      <trkpt lat="47.0007" lon="5.51777">
        <ele>215.953247</ele>
        <time>2011-12-08T16:47:51Z</time>
      </trkpt>
      <trkpt lat="47.00087" lon="5.51786">
        <ele>215.472656</ele>
        <time>2011-12-08T16:48:05Z</time>
      </trkpt>
      <trkpt lat="47.001" lon="5.51792">
        <ele>214.991943</ele>
        <time>2011-12-08T16:48:17Z</time>
      </trkpt>
      <trkpt lat="47.00128" lon="5.51807">
        <ele>213.550049</ele>
        <time>2011-12-08T16:48:43Z</time>
      </trkpt>
      <trkpt lat="47.00152" lon="5.51811">
        <ele>211.146729</ele>
        <time>2011-12-08T16:49:01Z</time>
      </trkpt>
      <trkpt lat="47.00162" lon="5.51816">
        <ele>209.704834</ele>
        <time>2011-12-08T16:49:09Z</time>
      </trkpt>
      <trkpt lat="47.00174" lon="5.51814">
        <ele>208.262817</ele>
        <time>2011-12-08T16:49:21Z</time>
      </trkpt>
      <trkpt lat="47.00181" lon="5.51818">
        <ele>207.782104</ele>
        <time>2011-12-08T16:49:40Z</time>
      </trkpt>
      <trkpt lat="47.00194" lon="5.5182">
        <ele>206.340088</ele>
        <time>2011-12-08T16:49:57Z</time>
      </trkpt>
      <trkpt lat="47.00212" lon="5.51825">
        <ele>203.93689</ele>
        <time>2011-12-08T16:50:14Z</time>
      </trkpt>
      <trkpt lat="47.00224" lon="5.51828">
        <ele>202.494873</ele>
        <time>2011-12-08T16:50:27Z</time>
      </trkpt>
      <trkpt lat="47.00243" lon="5.51836">
        <ele>200.572266</ele>
        <time>2011-12-08T16:50:43Z</time>
      </trkpt>
      <trkpt lat="47.0025" lon="5.51844">
        <ele>199.130127</ele>
        <time>2011-12-08T16:50:54Z</time>
      </trkpt>
      <trkpt lat="47.00255" lon="5.5185">
        <ele>198.649536</ele>
        <time>2011-12-08T16:51:00Z</time>
      </trkpt>
      <trkpt lat="47.00258" lon="5.51864">
        <ele>198.168945</ele>
        <time>2011-12-08T16:51:10Z</time>
      </trkpt>
      <trkpt lat="47.00251" lon="5.51889">
        <ele>198.649536</ele>
        <time>2011-12-08T16:51:24Z</time>
      </trkpt>
      <trkpt lat="47.00247" lon="5.51908">
        <ele>198.649536</ele>
        <time>2011-12-08T16:51:35Z</time>
      </trkpt>
      <trkpt lat="47.00241" lon="5.51928">
        <ele>199.130127</ele>
        <time>2011-12-08T16:51:51Z</time>
      </trkpt>
      <trkpt lat="47.00235" lon="5.51937">
        <ele>198.649536</ele>
        <time>2011-12-08T16:52:01Z</time>
      </trkpt>
      <trkpt lat="47.00232" lon="5.51943">
        <ele>198.168945</ele>
        <time>2011-12-08T16:52:16Z</time>
      </trkpt>
      <trkpt lat="47.00229" lon="5.51947">
        <ele>198.649536</ele>
        <time>2011-12-08T16:52:20Z</time>
      </trkpt>
      <trkpt lat="47.00219" lon="5.51969">
        <ele>198.649536</ele>
        <time>2011-12-08T16:52:39Z</time>
      </trkpt>
      <trkpt lat="47.00219" lon="5.51969">
        <ele>199.130127</ele>
        <time>2011-12-08T16:52:55Z</time>
      </trkpt>
    </trkseg>
  </trk>
</gpx>